<?xml version="1.0" encoding="UTF-8" standalone="no" ?>
<gpx xmlns="http://www.topografix.com/GPX/1/1" xmlns:xsi="http://www.w3.org/2001/XMLSchema-instance" xsi:schemaLocation="http://www.topografix.com/GPX/1/1 http://www.topografix.com/GPX/1/1/gpx.xsd" version="1.1" creator="VisuGPX - https://www.visugpx.com">
  <metadata>
    <name>randonnée: 16 JUIN 2020 12:49</name>
    <desc><![CDATA[belle petite marche avec  la cote villers ]]></desc>
  </metadata>
  <trk>
    <name><![CDATA[Tracé actuel: 16 JUIN 2020 12:49]]></name>
    <trkseg>
      <trkpt lat="49.63459" lon="4.98046">
        <ele>176.54</ele>
        <time>2020-06-16T10:49:23Z</time>
      </trkpt>
      <trkpt lat="49.63451" lon="4.98047">
        <ele>185.19</ele>
        <time>2020-06-16T10:49:27Z</time>
      </trkpt>
      <trkpt lat="49.63437" lon="4.98044">
        <ele>193.36</ele>
        <time>2020-06-16T10:49:44Z</time>
      </trkpt>
      <trkpt lat="49.63436" lon="4.98045">
        <ele>193.84</ele>
        <time>2020-06-16T10:49:47Z</time>
      </trkpt>
      <trkpt lat="49.63433" lon="4.98044">
        <ele>194.8</ele>
        <time>2020-06-16T10:49:50Z</time>
      </trkpt>
      <trkpt lat="49.63423" lon="4.98033">
        <ele>200.09</ele>
        <time>2020-06-16T10:50:05Z</time>
      </trkpt>
      <trkpt lat="49.63415" lon="4.98012">
        <ele>205.38</ele>
        <time>2020-06-16T10:50:22Z</time>
      </trkpt>
      <trkpt lat="49.63402" lon="4.97985">
        <ele>208.74</ele>
        <time>2020-06-16T10:50:41Z</time>
      </trkpt>
      <trkpt lat="49.63393" lon="4.97966">
        <ele>204.9</ele>
        <time>2020-06-16T10:50:56Z</time>
      </trkpt>
      <trkpt lat="49.63388" lon="4.97947">
        <ele>203.94</ele>
        <time>2020-06-16T10:51:09Z</time>
      </trkpt>
      <trkpt lat="49.6339" lon="4.97931">
        <ele>197.69</ele>
        <time>2020-06-16T10:51:20Z</time>
      </trkpt>
      <trkpt lat="49.63403" lon="4.97922">
        <ele>191.92</ele>
        <time>2020-06-16T10:51:28Z</time>
      </trkpt>
      <trkpt lat="49.63412" lon="4.97913">
        <ele>184.23</ele>
        <time>2020-06-16T10:51:42Z</time>
      </trkpt>
      <trkpt lat="49.63418" lon="4.97909">
        <ele>182.79</ele>
        <time>2020-06-16T10:51:49Z</time>
      </trkpt>
      <trkpt lat="49.63422" lon="4.97905">
        <ele>181.35</ele>
        <time>2020-06-16T10:51:54Z</time>
      </trkpt>
      <trkpt lat="49.63426" lon="4.97903">
        <ele>180.87</ele>
        <time>2020-06-16T10:51:57Z</time>
      </trkpt>
      <trkpt lat="49.63443" lon="4.97901">
        <ele>176.06</ele>
        <time>2020-06-16T10:52:13Z</time>
      </trkpt>
      <trkpt lat="49.63451" lon="4.97895">
        <ele>175.58</ele>
        <time>2020-06-16T10:52:21Z</time>
      </trkpt>
      <trkpt lat="49.63454" lon="4.97887">
        <ele>174.62</ele>
        <time>2020-06-16T10:52:26Z</time>
      </trkpt>
      <trkpt lat="49.63465" lon="4.9788">
        <ele>173.17</ele>
        <time>2020-06-16T10:52:43Z</time>
      </trkpt>
      <trkpt lat="49.63476" lon="4.97867">
        <ele>172.21</ele>
        <time>2020-06-16T10:52:59Z</time>
      </trkpt>
      <trkpt lat="49.63482" lon="4.97853">
        <ele>168.37</ele>
        <time>2020-06-16T10:53:12Z</time>
      </trkpt>
      <trkpt lat="49.63496" lon="4.97833">
        <ele>170.29</ele>
        <time>2020-06-16T10:53:30Z</time>
      </trkpt>
      <trkpt lat="49.63506" lon="4.97819">
        <ele>171.25</ele>
        <time>2020-06-16T10:53:43Z</time>
      </trkpt>
      <trkpt lat="49.6351" lon="4.97812">
        <ele>171.73</ele>
        <time>2020-06-16T10:53:49Z</time>
      </trkpt>
      <trkpt lat="49.63522" lon="4.97797">
        <ele>171.25</ele>
        <time>2020-06-16T10:54:03Z</time>
      </trkpt>
      <trkpt lat="49.63536" lon="4.97781">
        <ele>167.89</ele>
        <time>2020-06-16T10:54:16Z</time>
      </trkpt>
      <trkpt lat="49.63545" lon="4.97762">
        <ele>166.45</ele>
        <time>2020-06-16T10:54:31Z</time>
      </trkpt>
      <trkpt lat="49.6355" lon="4.97739">
        <ele>166.45</ele>
        <time>2020-06-16T10:54:46Z</time>
      </trkpt>
      <trkpt lat="49.63555" lon="4.97717">
        <ele>168.37</ele>
        <time>2020-06-16T10:55:00Z</time>
      </trkpt>
      <trkpt lat="49.63558" lon="4.97706">
        <ele>169.81</ele>
        <time>2020-06-16T10:55:07Z</time>
      </trkpt>
      <trkpt lat="49.63569" lon="4.977">
        <ele>171.25</ele>
        <time>2020-06-16T10:55:19Z</time>
      </trkpt>
      <trkpt lat="49.63571" lon="4.97697">
        <ele>171.25</ele>
        <time>2020-06-16T10:55:21Z</time>
      </trkpt>
      <trkpt lat="49.63577" lon="4.97683">
        <ele>174.14</ele>
        <time>2020-06-16T10:55:33Z</time>
      </trkpt>
      <trkpt lat="49.63587" lon="4.97679">
        <ele>173.66</ele>
        <time>2020-06-16T10:55:41Z</time>
      </trkpt>
      <trkpt lat="49.63597" lon="4.97676">
        <ele>174.62</ele>
        <time>2020-06-16T10:55:51Z</time>
      </trkpt>
      <trkpt lat="49.63613" lon="4.97665">
        <ele>174.62</ele>
        <time>2020-06-16T10:56:06Z</time>
      </trkpt>
      <trkpt lat="49.63625" lon="4.97656">
        <ele>174.62</ele>
        <time>2020-06-16T10:56:20Z</time>
      </trkpt>
      <trkpt lat="49.63634" lon="4.97642">
        <ele>173.17</ele>
        <time>2020-06-16T10:56:33Z</time>
      </trkpt>
      <trkpt lat="49.63643" lon="4.9762">
        <ele>175.1</ele>
        <time>2020-06-16T10:56:47Z</time>
      </trkpt>
      <trkpt lat="49.63646" lon="4.97601">
        <ele>176.54</ele>
        <time>2020-06-16T10:57:01Z</time>
      </trkpt>
      <trkpt lat="49.63647" lon="4.97573">
        <ele>177.98</ele>
        <time>2020-06-16T10:57:14Z</time>
      </trkpt>
      <trkpt lat="49.63649" lon="4.97545">
        <ele>184.23</ele>
        <time>2020-06-16T10:57:28Z</time>
      </trkpt>
      <trkpt lat="49.63645" lon="4.97525">
        <ele>186.15</ele>
        <time>2020-06-16T10:57:40Z</time>
      </trkpt>
      <trkpt lat="49.63644" lon="4.97504">
        <ele>187.11</ele>
        <time>2020-06-16T10:57:53Z</time>
      </trkpt>
      <trkpt lat="49.63641" lon="4.97482">
        <ele>187.59</ele>
        <time>2020-06-16T10:58:06Z</time>
      </trkpt>
      <trkpt lat="49.63641" lon="4.97463">
        <ele>186.15</ele>
        <time>2020-06-16T10:58:19Z</time>
      </trkpt>
      <trkpt lat="49.63643" lon="4.97448">
        <ele>186.15</ele>
        <time>2020-06-16T10:58:29Z</time>
      </trkpt>
      <trkpt lat="49.63646" lon="4.9743">
        <ele>186.15</ele>
        <time>2020-06-16T10:58:43Z</time>
      </trkpt>
      <trkpt lat="49.63642" lon="4.97418">
        <ele>188.08</ele>
        <time>2020-06-16T10:58:52Z</time>
      </trkpt>
      <trkpt lat="49.63632" lon="4.97405">
        <ele>193.36</ele>
        <time>2020-06-16T10:59:08Z</time>
      </trkpt>
      <trkpt lat="49.6362" lon="4.97393">
        <ele>190.48</ele>
        <time>2020-06-16T10:59:23Z</time>
      </trkpt>
      <trkpt lat="49.6361" lon="4.97379">
        <ele>188.56</ele>
        <time>2020-06-16T10:59:35Z</time>
      </trkpt>
      <trkpt lat="49.63595" lon="4.97364">
        <ele>188.08</ele>
        <time>2020-06-16T10:59:51Z</time>
      </trkpt>
      <trkpt lat="49.63583" lon="4.97351">
        <ele>189.04</ele>
        <time>2020-06-16T11:00:04Z</time>
      </trkpt>
      <trkpt lat="49.6357" lon="4.97334">
        <ele>187.59</ele>
        <time>2020-06-16T11:00:18Z</time>
      </trkpt>
      <trkpt lat="49.63561" lon="4.97316">
        <ele>187.59</ele>
        <time>2020-06-16T11:00:33Z</time>
      </trkpt>
      <trkpt lat="49.6356" lon="4.9731">
        <ele>188.08</ele>
        <time>2020-06-16T11:00:37Z</time>
      </trkpt>
      <trkpt lat="49.63553" lon="4.97285">
        <ele>188.08</ele>
        <time>2020-06-16T11:00:51Z</time>
      </trkpt>
      <trkpt lat="49.63545" lon="4.97263">
        <ele>188.08</ele>
        <time>2020-06-16T11:01:06Z</time>
      </trkpt>
      <trkpt lat="49.63539" lon="4.97243">
        <ele>187.59</ele>
        <time>2020-06-16T11:01:20Z</time>
      </trkpt>
      <trkpt lat="49.63532" lon="4.97222">
        <ele>188.56</ele>
        <time>2020-06-16T11:01:34Z</time>
      </trkpt>
      <trkpt lat="49.63528" lon="4.97206">
        <ele>187.59</ele>
        <time>2020-06-16T11:01:47Z</time>
      </trkpt>
      <trkpt lat="49.63521" lon="4.97183">
        <ele>186.63</ele>
        <time>2020-06-16T11:02:01Z</time>
      </trkpt>
      <trkpt lat="49.63516" lon="4.97163">
        <ele>186.15</ele>
        <time>2020-06-16T11:02:15Z</time>
      </trkpt>
      <trkpt lat="49.6351" lon="4.97143">
        <ele>186.63</ele>
        <time>2020-06-16T11:02:30Z</time>
      </trkpt>
      <trkpt lat="49.63504" lon="4.9712">
        <ele>185.67</ele>
        <time>2020-06-16T11:02:44Z</time>
      </trkpt>
      <trkpt lat="49.63498" lon="4.97101">
        <ele>185.67</ele>
        <time>2020-06-16T11:02:58Z</time>
      </trkpt>
      <trkpt lat="49.63492" lon="4.97079">
        <ele>186.15</ele>
        <time>2020-06-16T11:03:13Z</time>
      </trkpt>
      <trkpt lat="49.63485" lon="4.97055">
        <ele>185.19</ele>
        <time>2020-06-16T11:03:28Z</time>
      </trkpt>
      <trkpt lat="49.63479" lon="4.97035">
        <ele>185.19</ele>
        <time>2020-06-16T11:03:42Z</time>
      </trkpt>
      <trkpt lat="49.63471" lon="4.97011">
        <ele>183.75</ele>
        <time>2020-06-16T11:03:58Z</time>
      </trkpt>
      <trkpt lat="49.63467" lon="4.96988">
        <ele>181.83</ele>
        <time>2020-06-16T11:04:13Z</time>
      </trkpt>
      <trkpt lat="49.63464" lon="4.96965">
        <ele>179.9</ele>
        <time>2020-06-16T11:04:27Z</time>
      </trkpt>
      <trkpt lat="49.63461" lon="4.96952">
        <ele>179.9</ele>
        <time>2020-06-16T11:04:37Z</time>
      </trkpt>
      <trkpt lat="49.63452" lon="4.96936">
        <ele>178.46</ele>
        <time>2020-06-16T11:04:50Z</time>
      </trkpt>
      <trkpt lat="49.63443" lon="4.96924">
        <ele>177.98</ele>
        <time>2020-06-16T11:05:03Z</time>
      </trkpt>
      <trkpt lat="49.63434" lon="4.96909">
        <ele>179.42</ele>
        <time>2020-06-16T11:05:16Z</time>
      </trkpt>
      <trkpt lat="49.63424" lon="4.96896">
        <ele>178.46</ele>
        <time>2020-06-16T11:05:29Z</time>
      </trkpt>
      <trkpt lat="49.63413" lon="4.96884">
        <ele>177.5</ele>
        <time>2020-06-16T11:05:42Z</time>
      </trkpt>
      <trkpt lat="49.63411" lon="4.96883">
        <ele>177.02</ele>
        <time>2020-06-16T11:05:45Z</time>
      </trkpt>
      <trkpt lat="49.63399" lon="4.96871">
        <ele>174.14</ele>
        <time>2020-06-16T11:05:59Z</time>
      </trkpt>
      <trkpt lat="49.63389" lon="4.96857">
        <ele>173.66</ele>
        <time>2020-06-16T11:06:12Z</time>
      </trkpt>
      <trkpt lat="49.63382" lon="4.96851">
        <ele>173.17</ele>
        <time>2020-06-16T11:06:23Z</time>
      </trkpt>
      <trkpt lat="49.6337" lon="4.96834">
        <ele>173.17</ele>
        <time>2020-06-16T11:06:41Z</time>
      </trkpt>
      <trkpt lat="49.6336" lon="4.96823">
        <ele>172.69</ele>
        <time>2020-06-16T11:06:54Z</time>
      </trkpt>
      <trkpt lat="49.63351" lon="4.9681">
        <ele>171.73</ele>
        <time>2020-06-16T11:07:06Z</time>
      </trkpt>
      <trkpt lat="49.63343" lon="4.96789">
        <ele>171.73</ele>
        <time>2020-06-16T11:07:20Z</time>
      </trkpt>
      <trkpt lat="49.63336" lon="4.96767">
        <ele>173.66</ele>
        <time>2020-06-16T11:07:34Z</time>
      </trkpt>
      <trkpt lat="49.63333" lon="4.96749">
        <ele>175.1</ele>
        <time>2020-06-16T11:07:48Z</time>
      </trkpt>
      <trkpt lat="49.63331" lon="4.96729">
        <ele>175.58</ele>
        <time>2020-06-16T11:08:01Z</time>
      </trkpt>
      <trkpt lat="49.63326" lon="4.96706">
        <ele>174.14</ele>
        <time>2020-06-16T11:08:16Z</time>
      </trkpt>
      <trkpt lat="49.63317" lon="4.96683">
        <ele>175.58</ele>
        <time>2020-06-16T11:08:32Z</time>
      </trkpt>
      <trkpt lat="49.63308" lon="4.9667">
        <ele>175.58</ele>
        <time>2020-06-16T11:08:45Z</time>
      </trkpt>
      <trkpt lat="49.633" lon="4.96661">
        <ele>175.1</ele>
        <time>2020-06-16T11:08:55Z</time>
      </trkpt>
      <trkpt lat="49.63291" lon="4.9664">
        <ele>176.06</ele>
        <time>2020-06-16T11:09:11Z</time>
      </trkpt>
      <trkpt lat="49.63284" lon="4.96616">
        <ele>175.58</ele>
        <time>2020-06-16T11:09:26Z</time>
      </trkpt>
      <trkpt lat="49.63277" lon="4.966">
        <ele>175.1</ele>
        <time>2020-06-16T11:09:39Z</time>
      </trkpt>
      <trkpt lat="49.63268" lon="4.96594">
        <ele>175.58</ele>
        <time>2020-06-16T11:09:49Z</time>
      </trkpt>
      <trkpt lat="49.63264" lon="4.96591">
        <ele>175.58</ele>
        <time>2020-06-16T11:09:53Z</time>
      </trkpt>
      <trkpt lat="49.63251" lon="4.96583">
        <ele>175.1</ele>
        <time>2020-06-16T11:10:06Z</time>
      </trkpt>
      <trkpt lat="49.63249" lon="4.96581">
        <ele>174.62</ele>
        <time>2020-06-16T11:10:09Z</time>
      </trkpt>
      <trkpt lat="49.63236" lon="4.96569">
        <ele>176.06</ele>
        <time>2020-06-16T11:10:23Z</time>
      </trkpt>
      <trkpt lat="49.63228" lon="4.96563">
        <ele>176.54</ele>
        <time>2020-06-16T11:10:32Z</time>
      </trkpt>
      <trkpt lat="49.63214" lon="4.9655">
        <ele>176.54</ele>
        <time>2020-06-16T11:10:46Z</time>
      </trkpt>
      <trkpt lat="49.63208" lon="4.96545">
        <ele>177.02</ele>
        <time>2020-06-16T11:10:57Z</time>
      </trkpt>
      <trkpt lat="49.63207" lon="4.96545">
        <ele>177.5</ele>
        <time>2020-06-16T11:11:21Z</time>
      </trkpt>
      <trkpt lat="49.63204" lon="4.96543">
        <ele>177.98</ele>
        <time>2020-06-16T11:11:38Z</time>
      </trkpt>
      <trkpt lat="49.63194" lon="4.96538">
        <ele>177.02</ele>
        <time>2020-06-16T11:11:47Z</time>
      </trkpt>
      <trkpt lat="49.63182" lon="4.96531">
        <ele>177.02</ele>
        <time>2020-06-16T11:11:59Z</time>
      </trkpt>
      <trkpt lat="49.63169" lon="4.96523">
        <ele>176.06</ele>
        <time>2020-06-16T11:12:12Z</time>
      </trkpt>
      <trkpt lat="49.63163" lon="4.96519">
        <ele>176.06</ele>
        <time>2020-06-16T11:12:17Z</time>
      </trkpt>
      <trkpt lat="49.63155" lon="4.96515">
        <ele>176.06</ele>
        <time>2020-06-16T11:12:25Z</time>
      </trkpt>
      <trkpt lat="49.63142" lon="4.96507">
        <ele>175.58</ele>
        <time>2020-06-16T11:12:38Z</time>
      </trkpt>
      <trkpt lat="49.63127" lon="4.96497">
        <ele>175.1</ele>
        <time>2020-06-16T11:12:53Z</time>
      </trkpt>
      <trkpt lat="49.63115" lon="4.9649">
        <ele>175.1</ele>
        <time>2020-06-16T11:13:05Z</time>
      </trkpt>
      <trkpt lat="49.63101" lon="4.96482">
        <ele>175.1</ele>
        <time>2020-06-16T11:13:19Z</time>
      </trkpt>
      <trkpt lat="49.6309" lon="4.96474">
        <ele>175.58</ele>
        <time>2020-06-16T11:13:30Z</time>
      </trkpt>
      <trkpt lat="49.63086" lon="4.96473">
        <ele>175.1</ele>
        <time>2020-06-16T11:13:35Z</time>
      </trkpt>
      <trkpt lat="49.63072" lon="4.96462">
        <ele>175.58</ele>
        <time>2020-06-16T11:13:50Z</time>
      </trkpt>
      <trkpt lat="49.63059" lon="4.96453">
        <ele>175.58</ele>
        <time>2020-06-16T11:14:03Z</time>
      </trkpt>
      <trkpt lat="49.63048" lon="4.96446">
        <ele>175.58</ele>
        <time>2020-06-16T11:14:14Z</time>
      </trkpt>
      <trkpt lat="49.63035" lon="4.96438">
        <ele>176.54</ele>
        <time>2020-06-16T11:14:27Z</time>
      </trkpt>
      <trkpt lat="49.63028" lon="4.96434">
        <ele>176.54</ele>
        <time>2020-06-16T11:14:35Z</time>
      </trkpt>
      <trkpt lat="49.63021" lon="4.96429">
        <ele>177.5</ele>
        <time>2020-06-16T11:14:41Z</time>
      </trkpt>
      <trkpt lat="49.63006" lon="4.9642">
        <ele>177.98</ele>
        <time>2020-06-16T11:14:57Z</time>
      </trkpt>
      <trkpt lat="49.62993" lon="4.96412">
        <ele>177.98</ele>
        <time>2020-06-16T11:15:11Z</time>
      </trkpt>
      <trkpt lat="49.6298" lon="4.96402">
        <ele>177.98</ele>
        <time>2020-06-16T11:15:25Z</time>
      </trkpt>
      <trkpt lat="49.62978" lon="4.96402">
        <ele>178.46</ele>
        <time>2020-06-16T11:15:26Z</time>
      </trkpt>
      <trkpt lat="49.62969" lon="4.96396">
        <ele>177.98</ele>
        <time>2020-06-16T11:15:36Z</time>
      </trkpt>
      <trkpt lat="49.62965" lon="4.9639">
        <ele>178.46</ele>
        <time>2020-06-16T11:15:41Z</time>
      </trkpt>
      <trkpt lat="49.62952" lon="4.96376">
        <ele>177.5</ele>
        <time>2020-06-16T11:15:56Z</time>
      </trkpt>
      <trkpt lat="49.62939" lon="4.96365">
        <ele>177.98</ele>
        <time>2020-06-16T11:16:08Z</time>
      </trkpt>
      <trkpt lat="49.62926" lon="4.96356">
        <ele>180.87</ele>
        <time>2020-06-16T11:16:22Z</time>
      </trkpt>
      <trkpt lat="49.62911" lon="4.96346">
        <ele>183.27</ele>
        <time>2020-06-16T11:16:36Z</time>
      </trkpt>
      <trkpt lat="49.629" lon="4.96338">
        <ele>183.75</ele>
        <time>2020-06-16T11:16:48Z</time>
      </trkpt>
      <trkpt lat="49.62888" lon="4.96328">
        <ele>184.71</ele>
        <time>2020-06-16T11:17:02Z</time>
      </trkpt>
      <trkpt lat="49.62876" lon="4.9632">
        <ele>185.19</ele>
        <time>2020-06-16T11:17:15Z</time>
      </trkpt>
      <trkpt lat="49.62864" lon="4.96311">
        <ele>186.15</ele>
        <time>2020-06-16T11:17:29Z</time>
      </trkpt>
      <trkpt lat="49.6285" lon="4.96304">
        <ele>185.19</ele>
        <time>2020-06-16T11:17:44Z</time>
      </trkpt>
      <trkpt lat="49.62843" lon="4.963">
        <ele>184.71</ele>
        <time>2020-06-16T11:17:50Z</time>
      </trkpt>
      <trkpt lat="49.62839" lon="4.96294">
        <ele>184.23</ele>
        <time>2020-06-16T11:17:56Z</time>
      </trkpt>
      <trkpt lat="49.62834" lon="4.96291">
        <ele>185.19</ele>
        <time>2020-06-16T11:18:00Z</time>
      </trkpt>
      <trkpt lat="49.62816" lon="4.96294">
        <ele>184.23</ele>
        <time>2020-06-16T11:18:16Z</time>
      </trkpt>
      <trkpt lat="49.62811" lon="4.96293">
        <ele>184.23</ele>
        <time>2020-06-16T11:18:23Z</time>
      </trkpt>
      <trkpt lat="49.62796" lon="4.96286">
        <ele>184.23</ele>
        <time>2020-06-16T11:18:38Z</time>
      </trkpt>
      <trkpt lat="49.62788" lon="4.96278">
        <ele>183.75</ele>
        <time>2020-06-16T11:18:47Z</time>
      </trkpt>
      <trkpt lat="49.62779" lon="4.96272">
        <ele>184.71</ele>
        <time>2020-06-16T11:18:58Z</time>
      </trkpt>
      <trkpt lat="49.62765" lon="4.9626">
        <ele>184.71</ele>
        <time>2020-06-16T11:19:13Z</time>
      </trkpt>
      <trkpt lat="49.62754" lon="4.96249">
        <ele>184.23</ele>
        <time>2020-06-16T11:19:27Z</time>
      </trkpt>
      <trkpt lat="49.62741" lon="4.9624">
        <ele>183.27</ele>
        <time>2020-06-16T11:19:41Z</time>
      </trkpt>
      <trkpt lat="49.62726" lon="4.96231">
        <ele>183.75</ele>
        <time>2020-06-16T11:19:56Z</time>
      </trkpt>
      <trkpt lat="49.62713" lon="4.96223">
        <ele>183.27</ele>
        <time>2020-06-16T11:20:10Z</time>
      </trkpt>
      <trkpt lat="49.62702" lon="4.96217">
        <ele>181.83</ele>
        <time>2020-06-16T11:20:22Z</time>
      </trkpt>
      <trkpt lat="49.62692" lon="4.96203">
        <ele>181.35</ele>
        <time>2020-06-16T11:20:35Z</time>
      </trkpt>
      <trkpt lat="49.6269" lon="4.96196">
        <ele>180.87</ele>
        <time>2020-06-16T11:20:39Z</time>
      </trkpt>
      <trkpt lat="49.62683" lon="4.96184">
        <ele>180.87</ele>
        <time>2020-06-16T11:20:49Z</time>
      </trkpt>
      <trkpt lat="49.62674" lon="4.96166">
        <ele>180.87</ele>
        <time>2020-06-16T11:21:03Z</time>
      </trkpt>
      <trkpt lat="49.62665" lon="4.96152">
        <ele>182.31</ele>
        <time>2020-06-16T11:21:16Z</time>
      </trkpt>
      <trkpt lat="49.62658" lon="4.96143">
        <ele>184.71</ele>
        <time>2020-06-16T11:21:26Z</time>
      </trkpt>
      <trkpt lat="49.62649" lon="4.96132">
        <ele>186.15</ele>
        <time>2020-06-16T11:21:38Z</time>
      </trkpt>
      <trkpt lat="49.62642" lon="4.96121">
        <ele>186.63</ele>
        <time>2020-06-16T11:21:49Z</time>
      </trkpt>
      <trkpt lat="49.62633" lon="4.96113">
        <ele>187.59</ele>
        <time>2020-06-16T11:22:02Z</time>
      </trkpt>
      <trkpt lat="49.62623" lon="4.96101">
        <ele>189.04</ele>
        <time>2020-06-16T11:22:15Z</time>
      </trkpt>
      <trkpt lat="49.62612" lon="4.96093">
        <ele>190.96</ele>
        <time>2020-06-16T11:22:27Z</time>
      </trkpt>
      <trkpt lat="49.626" lon="4.9609">
        <ele>193.36</ele>
        <time>2020-06-16T11:22:39Z</time>
      </trkpt>
      <trkpt lat="49.62586" lon="4.96092">
        <ele>196.73</ele>
        <time>2020-06-16T11:22:51Z</time>
      </trkpt>
      <trkpt lat="49.62575" lon="4.96095">
        <ele>199.13</ele>
        <time>2020-06-16T11:23:03Z</time>
      </trkpt>
      <trkpt lat="49.62564" lon="4.961">
        <ele>196.73</ele>
        <time>2020-06-16T11:23:15Z</time>
      </trkpt>
      <trkpt lat="49.62551" lon="4.96103">
        <ele>194.32</ele>
        <time>2020-06-16T11:23:29Z</time>
      </trkpt>
      <trkpt lat="49.62532" lon="4.96107">
        <ele>192.4</ele>
        <time>2020-06-16T11:23:47Z</time>
      </trkpt>
      <trkpt lat="49.62526" lon="4.96107">
        <ele>190.96</ele>
        <time>2020-06-16T11:23:55Z</time>
      </trkpt>
      <trkpt lat="49.62509" lon="4.96105">
        <ele>189.52</ele>
        <time>2020-06-16T11:24:11Z</time>
      </trkpt>
      <trkpt lat="49.62507" lon="4.96104">
        <ele>189.52</ele>
        <time>2020-06-16T11:24:13Z</time>
      </trkpt>
      <trkpt lat="49.62498" lon="4.96103">
        <ele>189.04</ele>
        <time>2020-06-16T11:24:21Z</time>
      </trkpt>
      <trkpt lat="49.62486" lon="4.96102">
        <ele>188.56</ele>
        <time>2020-06-16T11:24:33Z</time>
      </trkpt>
      <trkpt lat="49.62479" lon="4.96099">
        <ele>189.04</ele>
        <time>2020-06-16T11:24:39Z</time>
      </trkpt>
      <trkpt lat="49.62462" lon="4.96096">
        <ele>188.56</ele>
        <time>2020-06-16T11:24:54Z</time>
      </trkpt>
      <trkpt lat="49.62451" lon="4.96093">
        <ele>187.11</ele>
        <time>2020-06-16T11:25:05Z</time>
      </trkpt>
      <trkpt lat="49.62442" lon="4.96083">
        <ele>187.59</ele>
        <time>2020-06-16T11:25:18Z</time>
      </trkpt>
      <trkpt lat="49.6243" lon="4.96076">
        <ele>185.67</ele>
        <time>2020-06-16T11:25:32Z</time>
      </trkpt>
      <trkpt lat="49.62416" lon="4.96068">
        <ele>183.75</ele>
        <time>2020-06-16T11:25:46Z</time>
      </trkpt>
      <trkpt lat="49.62402" lon="4.96063">
        <ele>180.87</ele>
        <time>2020-06-16T11:26:01Z</time>
      </trkpt>
      <trkpt lat="49.62397" lon="4.96058">
        <ele>181.35</ele>
        <time>2020-06-16T11:26:09Z</time>
      </trkpt>
      <trkpt lat="49.62391" lon="4.96045">
        <ele>180.87</ele>
        <time>2020-06-16T11:26:17Z</time>
      </trkpt>
      <trkpt lat="49.62387" lon="4.96031">
        <ele>181.83</ele>
        <time>2020-06-16T11:26:29Z</time>
      </trkpt>
      <trkpt lat="49.62381" lon="4.96009">
        <ele>180.87</ele>
        <time>2020-06-16T11:26:44Z</time>
      </trkpt>
      <trkpt lat="49.62374" lon="4.95984">
        <ele>179.42</ele>
        <time>2020-06-16T11:26:59Z</time>
      </trkpt>
      <trkpt lat="49.62372" lon="4.95966">
        <ele>179.42</ele>
        <time>2020-06-16T11:27:12Z</time>
      </trkpt>
      <trkpt lat="49.62366" lon="4.95945">
        <ele>179.42</ele>
        <time>2020-06-16T11:27:27Z</time>
      </trkpt>
      <trkpt lat="49.62364" lon="4.95922">
        <ele>180.38</ele>
        <time>2020-06-16T11:27:42Z</time>
      </trkpt>
      <trkpt lat="49.62359" lon="4.95902">
        <ele>179.42</ele>
        <time>2020-06-16T11:27:56Z</time>
      </trkpt>
      <trkpt lat="49.62351" lon="4.95883">
        <ele>175.58</ele>
        <time>2020-06-16T11:28:11Z</time>
      </trkpt>
      <trkpt lat="49.62346" lon="4.95879">
        <ele>174.62</ele>
        <time>2020-06-16T11:28:17Z</time>
      </trkpt>
      <trkpt lat="49.62329" lon="4.95876">
        <ele>175.58</ele>
        <time>2020-06-16T11:28:31Z</time>
      </trkpt>
      <trkpt lat="49.62327" lon="4.95877">
        <ele>176.06</ele>
        <time>2020-06-16T11:28:33Z</time>
      </trkpt>
      <trkpt lat="49.62322" lon="4.9588">
        <ele>176.54</ele>
        <time>2020-06-16T11:28:37Z</time>
      </trkpt>
      <trkpt lat="49.62305" lon="4.95879">
        <ele>180.87</ele>
        <time>2020-06-16T11:28:52Z</time>
      </trkpt>
      <trkpt lat="49.62297" lon="4.95881">
        <ele>183.75</ele>
        <time>2020-06-16T11:29:06Z</time>
      </trkpt>
      <trkpt lat="49.62289" lon="4.95884">
        <ele>180.38</ele>
        <time>2020-06-16T11:29:18Z</time>
      </trkpt>
      <trkpt lat="49.62287" lon="4.95866">
        <ele>178.46</ele>
        <time>2020-06-16T11:29:30Z</time>
      </trkpt>
      <trkpt lat="49.62289" lon="4.95864">
        <ele>180.87</ele>
        <time>2020-06-16T11:29:34Z</time>
      </trkpt>
      <trkpt lat="49.62287" lon="4.95856">
        <ele>182.31</ele>
        <time>2020-06-16T11:29:38Z</time>
      </trkpt>
      <trkpt lat="49.62285" lon="4.95846">
        <ele>181.35</ele>
        <time>2020-06-16T11:29:45Z</time>
      </trkpt>
      <trkpt lat="49.6228" lon="4.95821">
        <ele>179.42</ele>
        <time>2020-06-16T11:29:59Z</time>
      </trkpt>
      <trkpt lat="49.62277" lon="4.95799">
        <ele>180.38</ele>
        <time>2020-06-16T11:30:12Z</time>
      </trkpt>
      <trkpt lat="49.62276" lon="4.95787">
        <ele>180.87</ele>
        <time>2020-06-16T11:30:19Z</time>
      </trkpt>
      <trkpt lat="49.62277" lon="4.95778">
        <ele>181.35</ele>
        <time>2020-06-16T11:30:24Z</time>
      </trkpt>
      <trkpt lat="49.62277" lon="4.95772">
        <ele>181.83</ele>
        <time>2020-06-16T11:30:29Z</time>
      </trkpt>
      <trkpt lat="49.62277" lon="4.95758">
        <ele>183.27</ele>
        <time>2020-06-16T11:30:39Z</time>
      </trkpt>
      <trkpt lat="49.62275" lon="4.95745">
        <ele>185.19</ele>
        <time>2020-06-16T11:30:48Z</time>
      </trkpt>
      <trkpt lat="49.62279" lon="4.95721">
        <ele>185.67</ele>
        <time>2020-06-16T11:31:03Z</time>
      </trkpt>
      <trkpt lat="49.62276" lon="4.957">
        <ele>186.63</ele>
        <time>2020-06-16T11:31:16Z</time>
      </trkpt>
      <trkpt lat="49.62267" lon="4.9568">
        <ele>186.15</ele>
        <time>2020-06-16T11:31:29Z</time>
      </trkpt>
      <trkpt lat="49.62262" lon="4.95665">
        <ele>187.59</ele>
        <time>2020-06-16T11:31:43Z</time>
      </trkpt>
      <trkpt lat="49.62263" lon="4.95659">
        <ele>188.08</ele>
        <time>2020-06-16T11:31:48Z</time>
      </trkpt>
      <trkpt lat="49.62265" lon="4.95635">
        <ele>185.67</ele>
        <time>2020-06-16T11:32:02Z</time>
      </trkpt>
      <trkpt lat="49.62263" lon="4.95625">
        <ele>183.27</ele>
        <time>2020-06-16T11:32:09Z</time>
      </trkpt>
      <trkpt lat="49.62263" lon="4.95599">
        <ele>185.19</ele>
        <time>2020-06-16T11:32:26Z</time>
      </trkpt>
      <trkpt lat="49.62256" lon="4.95572">
        <ele>187.59</ele>
        <time>2020-06-16T11:32:44Z</time>
      </trkpt>
      <trkpt lat="49.62254" lon="4.95559">
        <ele>187.59</ele>
        <time>2020-06-16T11:32:58Z</time>
      </trkpt>
      <trkpt lat="49.6225" lon="4.9555">
        <ele>189.04</ele>
        <time>2020-06-16T11:33:12Z</time>
      </trkpt>
      <trkpt lat="49.62241" lon="4.95537">
        <ele>191.44</ele>
        <time>2020-06-16T11:33:29Z</time>
      </trkpt>
      <trkpt lat="49.62231" lon="4.95525">
        <ele>194.32</ele>
        <time>2020-06-16T11:33:44Z</time>
      </trkpt>
      <trkpt lat="49.62223" lon="4.95534">
        <ele>200.09</ele>
        <time>2020-06-16T11:34:02Z</time>
      </trkpt>
      <trkpt lat="49.62221" lon="4.95543">
        <ele>199.61</ele>
        <time>2020-06-16T11:34:13Z</time>
      </trkpt>
      <trkpt lat="49.62219" lon="4.95568">
        <ele>198.17</ele>
        <time>2020-06-16T11:34:27Z</time>
      </trkpt>
      <trkpt lat="49.62217" lon="4.9558">
        <ele>197.21</ele>
        <time>2020-06-16T11:34:36Z</time>
      </trkpt>
      <trkpt lat="49.62212" lon="4.95595">
        <ele>197.69</ele>
        <time>2020-06-16T11:34:46Z</time>
      </trkpt>
      <trkpt lat="49.62206" lon="4.95614">
        <ele>199.61</ele>
        <time>2020-06-16T11:35:03Z</time>
      </trkpt>
      <trkpt lat="49.62204" lon="4.95634">
        <ele>203.46</ele>
        <time>2020-06-16T11:35:19Z</time>
      </trkpt>
      <trkpt lat="49.62203" lon="4.95647">
        <ele>207.78</ele>
        <time>2020-06-16T11:35:32Z</time>
      </trkpt>
      <trkpt lat="49.62208" lon="4.95673">
        <ele>210.67</ele>
        <time>2020-06-16T11:35:46Z</time>
      </trkpt>
      <trkpt lat="49.62206" lon="4.95684">
        <ele>211.63</ele>
        <time>2020-06-16T11:35:52Z</time>
      </trkpt>
      <trkpt lat="49.62205" lon="4.95708">
        <ele>212.11</ele>
        <time>2020-06-16T11:36:06Z</time>
      </trkpt>
      <trkpt lat="49.62205" lon="4.95712">
        <ele>212.11</ele>
        <time>2020-06-16T11:36:11Z</time>
      </trkpt>
      <trkpt lat="49.62204" lon="4.95717">
        <ele>212.59</ele>
        <time>2020-06-16T11:36:14Z</time>
      </trkpt>
      <trkpt lat="49.622" lon="4.95741">
        <ele>211.15</ele>
        <time>2020-06-16T11:36:31Z</time>
      </trkpt>
      <trkpt lat="49.62197" lon="4.95767">
        <ele>211.63</ele>
        <time>2020-06-16T11:36:47Z</time>
      </trkpt>
      <trkpt lat="49.6219" lon="4.95792">
        <ele>211.63</ele>
        <time>2020-06-16T11:37:02Z</time>
      </trkpt>
      <trkpt lat="49.62185" lon="4.95809">
        <ele>211.63</ele>
        <time>2020-06-16T11:37:18Z</time>
      </trkpt>
      <trkpt lat="49.6218" lon="4.95825">
        <ele>212.59</ele>
        <time>2020-06-16T11:37:32Z</time>
      </trkpt>
      <trkpt lat="49.62161" lon="4.95859">
        <ele>209.7</ele>
        <time>2020-06-16T11:37:48Z</time>
      </trkpt>
      <trkpt lat="49.62157" lon="4.95862">
        <ele>209.22</ele>
        <time>2020-06-16T11:37:52Z</time>
      </trkpt>
      <trkpt lat="49.62155" lon="4.95865">
        <ele>208.74</ele>
        <time>2020-06-16T11:37:54Z</time>
      </trkpt>
      <trkpt lat="49.62142" lon="4.95877">
        <ele>206.82</ele>
        <time>2020-06-16T11:38:10Z</time>
      </trkpt>
      <trkpt lat="49.62131" lon="4.95883">
        <ele>205.38</ele>
        <time>2020-06-16T11:38:24Z</time>
      </trkpt>
      <trkpt lat="49.62116" lon="4.95891">
        <ele>201.53</ele>
        <time>2020-06-16T11:38:39Z</time>
      </trkpt>
      <trkpt lat="49.62102" lon="4.95903">
        <ele>202.01</ele>
        <time>2020-06-16T11:38:54Z</time>
      </trkpt>
      <trkpt lat="49.62091" lon="4.95907">
        <ele>200.09</ele>
        <time>2020-06-16T11:39:08Z</time>
      </trkpt>
      <trkpt lat="49.6208" lon="4.95914">
        <ele>200.57</ele>
        <time>2020-06-16T11:39:21Z</time>
      </trkpt>
      <trkpt lat="49.62072" lon="4.95922">
        <ele>202.49</ele>
        <time>2020-06-16T11:39:35Z</time>
      </trkpt>
      <trkpt lat="49.62061" lon="4.95941">
        <ele>204.42</ele>
        <time>2020-06-16T11:39:52Z</time>
      </trkpt>
      <trkpt lat="49.62047" lon="4.95949">
        <ele>208.26</ele>
        <time>2020-06-16T11:40:05Z</time>
      </trkpt>
      <trkpt lat="49.62035" lon="4.9596">
        <ele>212.11</ele>
        <time>2020-06-16T11:40:21Z</time>
      </trkpt>
      <trkpt lat="49.62015" lon="4.95966">
        <ele>211.15</ele>
        <time>2020-06-16T11:40:36Z</time>
      </trkpt>
      <trkpt lat="49.62007" lon="4.95964">
        <ele>209.7</ele>
        <time>2020-06-16T11:40:44Z</time>
      </trkpt>
      <trkpt lat="49.62" lon="4.95963">
        <ele>207.3</ele>
        <time>2020-06-16T11:40:51Z</time>
      </trkpt>
      <trkpt lat="49.61985" lon="4.95959">
        <ele>206.82</ele>
        <time>2020-06-16T11:41:04Z</time>
      </trkpt>
      <trkpt lat="49.61973" lon="4.95955">
        <ele>208.26</ele>
        <time>2020-06-16T11:41:17Z</time>
      </trkpt>
      <trkpt lat="49.61959" lon="4.95948">
        <ele>203.94</ele>
        <time>2020-06-16T11:41:29Z</time>
      </trkpt>
      <trkpt lat="49.6195" lon="4.95935">
        <ele>200.09</ele>
        <time>2020-06-16T11:41:42Z</time>
      </trkpt>
      <trkpt lat="49.6194" lon="4.95934">
        <ele>198.17</ele>
        <time>2020-06-16T11:41:56Z</time>
      </trkpt>
      <trkpt lat="49.6193" lon="4.95932">
        <ele>199.61</ele>
        <time>2020-06-16T11:42:08Z</time>
      </trkpt>
      <trkpt lat="49.61922" lon="4.9593">
        <ele>200.09</ele>
        <time>2020-06-16T11:42:23Z</time>
      </trkpt>
      <trkpt lat="49.6191" lon="4.95932">
        <ele>199.61</ele>
        <time>2020-06-16T11:42:40Z</time>
      </trkpt>
      <trkpt lat="49.61894" lon="4.95934">
        <ele>201.05</ele>
        <time>2020-06-16T11:42:56Z</time>
      </trkpt>
      <trkpt lat="49.61889" lon="4.95934">
        <ele>202.49</ele>
        <time>2020-06-16T11:43:00Z</time>
      </trkpt>
      <trkpt lat="49.6188" lon="4.95933">
        <ele>205.38</ele>
        <time>2020-06-16T11:43:08Z</time>
      </trkpt>
      <trkpt lat="49.6187" lon="4.9593">
        <ele>205.38</ele>
        <time>2020-06-16T11:43:21Z</time>
      </trkpt>
      <trkpt lat="49.61864" lon="4.95932">
        <ele>205.86</ele>
        <time>2020-06-16T11:43:36Z</time>
      </trkpt>
      <trkpt lat="49.61848" lon="4.95934">
        <ele>207.3</ele>
        <time>2020-06-16T11:43:48Z</time>
      </trkpt>
      <trkpt lat="49.61838" lon="4.95933">
        <ele>206.82</ele>
        <time>2020-06-16T11:44:04Z</time>
      </trkpt>
      <trkpt lat="49.61835" lon="4.95933">
        <ele>206.82</ele>
        <time>2020-06-16T11:44:29Z</time>
      </trkpt>
      <trkpt lat="49.61837" lon="4.95931">
        <ele>205.86</ele>
        <time>2020-06-16T11:44:55Z</time>
      </trkpt>
      <trkpt lat="49.61828" lon="4.95928">
        <ele>203.94</ele>
        <time>2020-06-16T11:45:09Z</time>
      </trkpt>
      <trkpt lat="49.6182" lon="4.95925">
        <ele>201.53</ele>
        <time>2020-06-16T11:45:16Z</time>
      </trkpt>
      <trkpt lat="49.61813" lon="4.95921">
        <ele>200.09</ele>
        <time>2020-06-16T11:45:23Z</time>
      </trkpt>
      <trkpt lat="49.61801" lon="4.95914">
        <ele>198.17</ele>
        <time>2020-06-16T11:45:35Z</time>
      </trkpt>
      <trkpt lat="49.61797" lon="4.95911">
        <ele>198.17</ele>
        <time>2020-06-16T11:45:39Z</time>
      </trkpt>
      <trkpt lat="49.61787" lon="4.95905">
        <ele>199.13</ele>
        <time>2020-06-16T11:45:51Z</time>
      </trkpt>
      <trkpt lat="49.61781" lon="4.95903">
        <ele>199.61</ele>
        <time>2020-06-16T11:45:57Z</time>
      </trkpt>
      <trkpt lat="49.61769" lon="4.95896">
        <ele>200.09</ele>
        <time>2020-06-16T11:46:09Z</time>
      </trkpt>
      <trkpt lat="49.61761" lon="4.95892">
        <ele>201.05</ele>
        <time>2020-06-16T11:46:18Z</time>
      </trkpt>
      <trkpt lat="49.61752" lon="4.95885">
        <ele>201.53</ele>
        <time>2020-06-16T11:46:29Z</time>
      </trkpt>
      <trkpt lat="49.61749" lon="4.95882">
        <ele>201.53</ele>
        <time>2020-06-16T11:46:32Z</time>
      </trkpt>
      <trkpt lat="49.61747" lon="4.9588">
        <ele>201.53</ele>
        <time>2020-06-16T11:46:35Z</time>
      </trkpt>
      <trkpt lat="49.61741" lon="4.95874">
        <ele>201.05</ele>
        <time>2020-06-16T11:46:43Z</time>
      </trkpt>
      <trkpt lat="49.61736" lon="4.95869">
        <ele>201.05</ele>
        <time>2020-06-16T11:46:49Z</time>
      </trkpt>
      <trkpt lat="49.61734" lon="4.95868">
        <ele>201.05</ele>
        <time>2020-06-16T11:46:51Z</time>
      </trkpt>
      <trkpt lat="49.61728" lon="4.95865">
        <ele>202.49</ele>
        <time>2020-06-16T11:46:57Z</time>
      </trkpt>
      <trkpt lat="49.61721" lon="4.95855">
        <ele>206.34</ele>
        <time>2020-06-16T11:47:09Z</time>
      </trkpt>
      <trkpt lat="49.6171" lon="4.95847">
        <ele>209.7</ele>
        <time>2020-06-16T11:47:21Z</time>
      </trkpt>
      <trkpt lat="49.61701" lon="4.95838">
        <ele>213.55</ele>
        <time>2020-06-16T11:47:34Z</time>
      </trkpt>
      <trkpt lat="49.61698" lon="4.95836">
        <ele>214.51</ele>
        <time>2020-06-16T11:47:38Z</time>
      </trkpt>
      <trkpt lat="49.61691" lon="4.95817">
        <ele>218.84</ele>
        <time>2020-06-16T11:47:50Z</time>
      </trkpt>
      <trkpt lat="49.61687" lon="4.95807">
        <ele>220.28</ele>
        <time>2020-06-16T11:48:01Z</time>
      </trkpt>
      <trkpt lat="49.61685" lon="4.95801">
        <ele>221.72</ele>
        <time>2020-06-16T11:48:18Z</time>
      </trkpt>
      <trkpt lat="49.61678" lon="4.95792">
        <ele>222.68</ele>
        <time>2020-06-16T11:48:28Z</time>
      </trkpt>
      <trkpt lat="49.6167" lon="4.95779">
        <ele>224.61</ele>
        <time>2020-06-16T11:48:39Z</time>
      </trkpt>
      <trkpt lat="49.61664" lon="4.95765">
        <ele>225.57</ele>
        <time>2020-06-16T11:48:51Z</time>
      </trkpt>
      <trkpt lat="49.61655" lon="4.95748">
        <ele>226.53</ele>
        <time>2020-06-16T11:49:04Z</time>
      </trkpt>
      <trkpt lat="49.61647" lon="4.95732">
        <ele>227.97</ele>
        <time>2020-06-16T11:49:16Z</time>
      </trkpt>
      <trkpt lat="49.61639" lon="4.95714">
        <ele>229.41</ele>
        <time>2020-06-16T11:49:29Z</time>
      </trkpt>
      <trkpt lat="49.61634" lon="4.95695">
        <ele>230.37</ele>
        <time>2020-06-16T11:49:42Z</time>
      </trkpt>
      <trkpt lat="49.61629" lon="4.95677">
        <ele>232.3</ele>
        <time>2020-06-16T11:49:56Z</time>
      </trkpt>
      <trkpt lat="49.61627" lon="4.95657">
        <ele>233.26</ele>
        <time>2020-06-16T11:50:08Z</time>
      </trkpt>
      <trkpt lat="49.61625" lon="4.95641">
        <ele>235.18</ele>
        <time>2020-06-16T11:50:20Z</time>
      </trkpt>
      <trkpt lat="49.61625" lon="4.95623">
        <ele>236.62</ele>
        <time>2020-06-16T11:50:32Z</time>
      </trkpt>
      <trkpt lat="49.61627" lon="4.95603">
        <ele>237.58</ele>
        <time>2020-06-16T11:50:46Z</time>
      </trkpt>
      <trkpt lat="49.61629" lon="4.95584">
        <ele>238.06</ele>
        <time>2020-06-16T11:50:57Z</time>
      </trkpt>
      <trkpt lat="49.6163" lon="4.95567">
        <ele>239.51</ele>
        <time>2020-06-16T11:51:09Z</time>
      </trkpt>
      <trkpt lat="49.61632" lon="4.95547">
        <ele>241.43</ele>
        <time>2020-06-16T11:51:21Z</time>
      </trkpt>
      <trkpt lat="49.61633" lon="4.95531">
        <ele>243.35</ele>
        <time>2020-06-16T11:51:32Z</time>
      </trkpt>
      <trkpt lat="49.61633" lon="4.95513">
        <ele>243.83</ele>
        <time>2020-06-16T11:51:44Z</time>
      </trkpt>
      <trkpt lat="49.61634" lon="4.95496">
        <ele>244.79</ele>
        <time>2020-06-16T11:51:56Z</time>
      </trkpt>
      <trkpt lat="49.61635" lon="4.95483">
        <ele>244.79</ele>
        <time>2020-06-16T11:52:07Z</time>
      </trkpt>
      <trkpt lat="49.61634" lon="4.95463">
        <ele>245.75</ele>
        <time>2020-06-16T11:52:19Z</time>
      </trkpt>
      <trkpt lat="49.61633" lon="4.95444">
        <ele>246.23</ele>
        <time>2020-06-16T11:52:32Z</time>
      </trkpt>
      <trkpt lat="49.61634" lon="4.95425">
        <ele>246.72</ele>
        <time>2020-06-16T11:52:44Z</time>
      </trkpt>
      <trkpt lat="49.61632" lon="4.95406">
        <ele>249.6</ele>
        <time>2020-06-16T11:52:57Z</time>
      </trkpt>
      <trkpt lat="49.61632" lon="4.95387">
        <ele>251.52</ele>
        <time>2020-06-16T11:53:09Z</time>
      </trkpt>
      <trkpt lat="49.61631" lon="4.9537">
        <ele>252</ele>
        <time>2020-06-16T11:53:20Z</time>
      </trkpt>
      <trkpt lat="49.61629" lon="4.95351">
        <ele>252.48</ele>
        <time>2020-06-16T11:53:32Z</time>
      </trkpt>
      <trkpt lat="49.61626" lon="4.95336">
        <ele>252.96</ele>
        <time>2020-06-16T11:53:43Z</time>
      </trkpt>
      <trkpt lat="49.61622" lon="4.9532">
        <ele>253.44</ele>
        <time>2020-06-16T11:53:54Z</time>
      </trkpt>
      <trkpt lat="49.61618" lon="4.95301">
        <ele>254.41</ele>
        <time>2020-06-16T11:54:07Z</time>
      </trkpt>
      <trkpt lat="49.61613" lon="4.95285">
        <ele>256.33</ele>
        <time>2020-06-16T11:54:19Z</time>
      </trkpt>
      <trkpt lat="49.61609" lon="4.9526">
        <ele>256.81</ele>
        <time>2020-06-16T11:54:34Z</time>
      </trkpt>
      <trkpt lat="49.61601" lon="4.95241">
        <ele>257.29</ele>
        <time>2020-06-16T11:54:49Z</time>
      </trkpt>
      <trkpt lat="49.61596" lon="4.95222">
        <ele>258.25</ele>
        <time>2020-06-16T11:55:04Z</time>
      </trkpt>
      <trkpt lat="49.61591" lon="4.95202">
        <ele>259.21</ele>
        <time>2020-06-16T11:55:17Z</time>
      </trkpt>
      <trkpt lat="49.61587" lon="4.95185">
        <ele>258.73</ele>
        <time>2020-06-16T11:55:29Z</time>
      </trkpt>
      <trkpt lat="49.61586" lon="4.95178">
        <ele>258.25</ele>
        <time>2020-06-16T11:55:32Z</time>
      </trkpt>
      <trkpt lat="49.61585" lon="4.95173">
        <ele>257.77</ele>
        <time>2020-06-16T11:55:37Z</time>
      </trkpt>
      <trkpt lat="49.6158" lon="4.95148">
        <ele>257.77</ele>
        <time>2020-06-16T11:55:52Z</time>
      </trkpt>
      <trkpt lat="49.61574" lon="4.95129">
        <ele>259.69</ele>
        <time>2020-06-16T11:56:05Z</time>
      </trkpt>
      <trkpt lat="49.6157" lon="4.95113">
        <ele>260.65</ele>
        <time>2020-06-16T11:56:18Z</time>
      </trkpt>
      <trkpt lat="49.61568" lon="4.95095">
        <ele>262.1</ele>
        <time>2020-06-16T11:56:30Z</time>
      </trkpt>
      <trkpt lat="49.61562" lon="4.95076">
        <ele>263.54</ele>
        <time>2020-06-16T11:56:44Z</time>
      </trkpt>
      <trkpt lat="49.61558" lon="4.95058">
        <ele>266.42</ele>
        <time>2020-06-16T11:56:56Z</time>
      </trkpt>
      <trkpt lat="49.61554" lon="4.95041">
        <ele>267.86</ele>
        <time>2020-06-16T11:57:07Z</time>
      </trkpt>
      <trkpt lat="49.61547" lon="4.95019">
        <ele>269.79</ele>
        <time>2020-06-16T11:57:21Z</time>
      </trkpt>
      <trkpt lat="49.61544" lon="4.95014">
        <ele>269.79</ele>
        <time>2020-06-16T11:57:26Z</time>
      </trkpt>
      <trkpt lat="49.6154" lon="4.95004">
        <ele>271.23</ele>
        <time>2020-06-16T11:57:34Z</time>
      </trkpt>
      <trkpt lat="49.6154" lon="4.95001">
        <ele>271.23</ele>
        <time>2020-06-16T11:57:36Z</time>
      </trkpt>
      <trkpt lat="49.61536" lon="4.94993">
        <ele>272.67</ele>
        <time>2020-06-16T11:57:43Z</time>
      </trkpt>
      <trkpt lat="49.61529" lon="4.94972">
        <ele>275.07</ele>
        <time>2020-06-16T11:57:57Z</time>
      </trkpt>
      <trkpt lat="49.61528" lon="4.94969">
        <ele>275.56</ele>
        <time>2020-06-16T11:58:00Z</time>
      </trkpt>
      <trkpt lat="49.6152" lon="4.94952">
        <ele>279.4</ele>
        <time>2020-06-16T11:58:15Z</time>
      </trkpt>
      <trkpt lat="49.61519" lon="4.9495">
        <ele>279.88</ele>
        <time>2020-06-16T11:58:22Z</time>
      </trkpt>
      <trkpt lat="49.61517" lon="4.94944">
        <ele>280.84</ele>
        <time>2020-06-16T11:58:28Z</time>
      </trkpt>
      <trkpt lat="49.61514" lon="4.94941">
        <ele>280.84</ele>
        <time>2020-06-16T11:58:31Z</time>
      </trkpt>
      <trkpt lat="49.61501" lon="4.94926">
        <ele>280.84</ele>
        <time>2020-06-16T11:58:46Z</time>
      </trkpt>
      <trkpt lat="49.61497" lon="4.94918">
        <ele>282.28</ele>
        <time>2020-06-16T11:58:54Z</time>
      </trkpt>
      <trkpt lat="49.6148" lon="4.94903">
        <ele>279.4</ele>
        <time>2020-06-16T11:59:10Z</time>
      </trkpt>
      <trkpt lat="49.6147" lon="4.94889">
        <ele>281.32</ele>
        <time>2020-06-16T11:59:25Z</time>
      </trkpt>
      <trkpt lat="49.61463" lon="4.94877">
        <ele>283.25</ele>
        <time>2020-06-16T11:59:36Z</time>
      </trkpt>
      <trkpt lat="49.61458" lon="4.94868">
        <ele>284.21</ele>
        <time>2020-06-16T11:59:43Z</time>
      </trkpt>
      <trkpt lat="49.6145" lon="4.94858">
        <ele>283.73</ele>
        <time>2020-06-16T11:59:53Z</time>
      </trkpt>
      <trkpt lat="49.61437" lon="4.94843">
        <ele>284.69</ele>
        <time>2020-06-16T12:00:07Z</time>
      </trkpt>
      <trkpt lat="49.61434" lon="4.94841">
        <ele>285.17</ele>
        <time>2020-06-16T12:00:10Z</time>
      </trkpt>
      <trkpt lat="49.61424" lon="4.94827">
        <ele>286.61</ele>
        <time>2020-06-16T12:00:24Z</time>
      </trkpt>
      <trkpt lat="49.61418" lon="4.94811">
        <ele>290.94</ele>
        <time>2020-06-16T12:00:38Z</time>
      </trkpt>
      <trkpt lat="49.61412" lon="4.94807">
        <ele>290.46</ele>
        <time>2020-06-16T12:00:43Z</time>
      </trkpt>
      <trkpt lat="49.61405" lon="4.94801">
        <ele>290.46</ele>
        <time>2020-06-16T12:00:49Z</time>
      </trkpt>
      <trkpt lat="49.61393" lon="4.94782">
        <ele>290.94</ele>
        <time>2020-06-16T12:01:05Z</time>
      </trkpt>
      <trkpt lat="49.61383" lon="4.94772">
        <ele>289.49</ele>
        <time>2020-06-16T12:01:16Z</time>
      </trkpt>
      <trkpt lat="49.61368" lon="4.9476">
        <ele>282.28</ele>
        <time>2020-06-16T12:01:30Z</time>
      </trkpt>
      <trkpt lat="49.61364" lon="4.94756">
        <ele>280.36</ele>
        <time>2020-06-16T12:01:36Z</time>
      </trkpt>
      <trkpt lat="49.6135" lon="4.94736">
        <ele>280.36</ele>
        <time>2020-06-16T12:01:52Z</time>
      </trkpt>
      <trkpt lat="49.61338" lon="4.9472">
        <ele>281.32</ele>
        <time>2020-06-16T12:02:07Z</time>
      </trkpt>
      <trkpt lat="49.61332" lon="4.94713">
        <ele>280.36</ele>
        <time>2020-06-16T12:02:14Z</time>
      </trkpt>
      <trkpt lat="49.61323" lon="4.94703">
        <ele>280.36</ele>
        <time>2020-06-16T12:02:25Z</time>
      </trkpt>
      <trkpt lat="49.61311" lon="4.94687">
        <ele>279.88</ele>
        <time>2020-06-16T12:02:42Z</time>
      </trkpt>
      <trkpt lat="49.61306" lon="4.9468">
        <ele>279.88</ele>
        <time>2020-06-16T12:02:56Z</time>
      </trkpt>
      <trkpt lat="49.61296" lon="4.94661">
        <ele>281.32</ele>
        <time>2020-06-16T12:03:11Z</time>
      </trkpt>
      <trkpt lat="49.61284" lon="4.94646">
        <ele>283.25</ele>
        <time>2020-06-16T12:03:27Z</time>
      </trkpt>
      <trkpt lat="49.61277" lon="4.94634">
        <ele>285.65</ele>
        <time>2020-06-16T12:03:41Z</time>
      </trkpt>
      <trkpt lat="49.61271" lon="4.94628">
        <ele>285.65</ele>
        <time>2020-06-16T12:03:47Z</time>
      </trkpt>
      <trkpt lat="49.61256" lon="4.94613">
        <ele>288.05</ele>
        <time>2020-06-16T12:04:01Z</time>
      </trkpt>
      <trkpt lat="49.61242" lon="4.94607">
        <ele>290.46</ele>
        <time>2020-06-16T12:04:14Z</time>
      </trkpt>
      <trkpt lat="49.61228" lon="4.94594">
        <ele>292.86</ele>
        <time>2020-06-16T12:04:28Z</time>
      </trkpt>
      <trkpt lat="49.61214" lon="4.94581">
        <ele>293.34</ele>
        <time>2020-06-16T12:04:43Z</time>
      </trkpt>
      <trkpt lat="49.61203" lon="4.9456">
        <ele>290.46</ele>
        <time>2020-06-16T12:04:58Z</time>
      </trkpt>
      <trkpt lat="49.61191" lon="4.94533">
        <ele>286.13</ele>
        <time>2020-06-16T12:05:13Z</time>
      </trkpt>
      <trkpt lat="49.6118" lon="4.94517">
        <ele>284.21</ele>
        <time>2020-06-16T12:05:26Z</time>
      </trkpt>
      <trkpt lat="49.61166" lon="4.94503">
        <ele>284.69</ele>
        <time>2020-06-16T12:05:40Z</time>
      </trkpt>
      <trkpt lat="49.61155" lon="4.94492">
        <ele>285.17</ele>
        <time>2020-06-16T12:05:52Z</time>
      </trkpt>
      <trkpt lat="49.61147" lon="4.94481">
        <ele>285.17</ele>
        <time>2020-06-16T12:06:03Z</time>
      </trkpt>
      <trkpt lat="49.61137" lon="4.94465">
        <ele>284.21</ele>
        <time>2020-06-16T12:06:17Z</time>
      </trkpt>
      <trkpt lat="49.61126" lon="4.94449">
        <ele>285.65</ele>
        <time>2020-06-16T12:06:31Z</time>
      </trkpt>
      <trkpt lat="49.61113" lon="4.94433">
        <ele>285.65</ele>
        <time>2020-06-16T12:06:46Z</time>
      </trkpt>
      <trkpt lat="49.61101" lon="4.9442">
        <ele>286.61</ele>
        <time>2020-06-16T12:07:00Z</time>
      </trkpt>
      <trkpt lat="49.6109" lon="4.94409">
        <ele>286.13</ele>
        <time>2020-06-16T12:07:12Z</time>
      </trkpt>
      <trkpt lat="49.6108" lon="4.94394">
        <ele>286.13</ele>
        <time>2020-06-16T12:07:26Z</time>
      </trkpt>
      <trkpt lat="49.61068" lon="4.94381">
        <ele>287.09</ele>
        <time>2020-06-16T12:07:40Z</time>
      </trkpt>
      <trkpt lat="49.61056" lon="4.94365">
        <ele>286.61</ele>
        <time>2020-06-16T12:07:55Z</time>
      </trkpt>
      <trkpt lat="49.61039" lon="4.94347">
        <ele>288.53</ele>
        <time>2020-06-16T12:08:10Z</time>
      </trkpt>
      <trkpt lat="49.61022" lon="4.94327">
        <ele>288.53</ele>
        <time>2020-06-16T12:08:27Z</time>
      </trkpt>
      <trkpt lat="49.61007" lon="4.94308">
        <ele>287.57</ele>
        <time>2020-06-16T12:08:46Z</time>
      </trkpt>
      <trkpt lat="49.60994" lon="4.94288">
        <ele>287.57</ele>
        <time>2020-06-16T12:09:03Z</time>
      </trkpt>
      <trkpt lat="49.60993" lon="4.94285">
        <ele>287.57</ele>
        <time>2020-06-16T12:09:06Z</time>
      </trkpt>
      <trkpt lat="49.60983" lon="4.94261">
        <ele>289.49</ele>
        <time>2020-06-16T12:09:21Z</time>
      </trkpt>
      <trkpt lat="49.60973" lon="4.94246">
        <ele>289.01</ele>
        <time>2020-06-16T12:09:35Z</time>
      </trkpt>
      <trkpt lat="49.60964" lon="4.9422">
        <ele>288.53</ele>
        <time>2020-06-16T12:09:51Z</time>
      </trkpt>
      <trkpt lat="49.60961" lon="4.94215">
        <ele>289.49</ele>
        <time>2020-06-16T12:09:57Z</time>
      </trkpt>
      <trkpt lat="49.6095" lon="4.94187">
        <ele>289.01</ele>
        <time>2020-06-16T12:10:16Z</time>
      </trkpt>
      <trkpt lat="49.60941" lon="4.94164">
        <ele>289.49</ele>
        <time>2020-06-16T12:10:32Z</time>
      </trkpt>
      <trkpt lat="49.6094" lon="4.94161">
        <ele>289.97</ele>
        <time>2020-06-16T12:10:34Z</time>
      </trkpt>
      <trkpt lat="49.60936" lon="4.94151">
        <ele>290.46</ele>
        <time>2020-06-16T12:10:40Z</time>
      </trkpt>
      <trkpt lat="49.60927" lon="4.9413">
        <ele>291.42</ele>
        <time>2020-06-16T12:10:56Z</time>
      </trkpt>
      <trkpt lat="49.60919" lon="4.94109">
        <ele>292.86</ele>
        <time>2020-06-16T12:11:10Z</time>
      </trkpt>
      <trkpt lat="49.60911" lon="4.94091">
        <ele>292.86</ele>
        <time>2020-06-16T12:11:24Z</time>
      </trkpt>
      <trkpt lat="49.60902" lon="4.94071">
        <ele>292.38</ele>
        <time>2020-06-16T12:11:38Z</time>
      </trkpt>
      <trkpt lat="49.60893" lon="4.9405">
        <ele>293.82</ele>
        <time>2020-06-16T12:11:52Z</time>
      </trkpt>
      <trkpt lat="49.60884" lon="4.94028">
        <ele>294.3</ele>
        <time>2020-06-16T12:12:08Z</time>
      </trkpt>
      <trkpt lat="49.60875" lon="4.94007">
        <ele>294.3</ele>
        <time>2020-06-16T12:12:23Z</time>
      </trkpt>
      <trkpt lat="49.60867" lon="4.9399">
        <ele>294.3</ele>
        <time>2020-06-16T12:12:36Z</time>
      </trkpt>
      <trkpt lat="49.60857" lon="4.93967">
        <ele>295.26</ele>
        <time>2020-06-16T12:12:52Z</time>
      </trkpt>
      <trkpt lat="49.60846" lon="4.93945">
        <ele>295.74</ele>
        <time>2020-06-16T12:13:07Z</time>
      </trkpt>
      <trkpt lat="49.60835" lon="4.93922">
        <ele>296.7</ele>
        <time>2020-06-16T12:13:23Z</time>
      </trkpt>
      <trkpt lat="49.60824" lon="4.93901">
        <ele>297.18</ele>
        <time>2020-06-16T12:13:38Z</time>
      </trkpt>
      <trkpt lat="49.60815" lon="4.93881">
        <ele>298.15</ele>
        <time>2020-06-16T12:13:53Z</time>
      </trkpt>
      <trkpt lat="49.60805" lon="4.93864">
        <ele>297.67</ele>
        <time>2020-06-16T12:14:08Z</time>
      </trkpt>
      <trkpt lat="49.60794" lon="4.93845">
        <ele>297.18</ele>
        <time>2020-06-16T12:14:23Z</time>
      </trkpt>
      <trkpt lat="49.60782" lon="4.93821">
        <ele>298.15</ele>
        <time>2020-06-16T12:14:38Z</time>
      </trkpt>
      <trkpt lat="49.60771" lon="4.93803">
        <ele>298.63</ele>
        <time>2020-06-16T12:14:53Z</time>
      </trkpt>
      <trkpt lat="49.60758" lon="4.9378">
        <ele>298.15</ele>
        <time>2020-06-16T12:15:08Z</time>
      </trkpt>
      <trkpt lat="49.60747" lon="4.93761">
        <ele>298.63</ele>
        <time>2020-06-16T12:15:25Z</time>
      </trkpt>
      <trkpt lat="49.60736" lon="4.93745">
        <ele>299.59</ele>
        <time>2020-06-16T12:15:39Z</time>
      </trkpt>
      <trkpt lat="49.6072" lon="4.93723">
        <ele>300.07</ele>
        <time>2020-06-16T12:15:55Z</time>
      </trkpt>
      <trkpt lat="49.60708" lon="4.93704">
        <ele>300.07</ele>
        <time>2020-06-16T12:16:11Z</time>
      </trkpt>
      <trkpt lat="49.60695" lon="4.93687">
        <ele>300.07</ele>
        <time>2020-06-16T12:16:27Z</time>
      </trkpt>
      <trkpt lat="49.60681" lon="4.93666">
        <ele>299.59</ele>
        <time>2020-06-16T12:16:43Z</time>
      </trkpt>
      <trkpt lat="49.60664" lon="4.93639">
        <ele>301.03</ele>
        <time>2020-06-16T12:17:03Z</time>
      </trkpt>
      <trkpt lat="49.60656" lon="4.93627">
        <ele>301.99</ele>
        <time>2020-06-16T12:17:15Z</time>
      </trkpt>
      <trkpt lat="49.60656" lon="4.93624">
        <ele>302.47</ele>
        <time>2020-06-16T12:17:26Z</time>
      </trkpt>
      <trkpt lat="49.60656" lon="4.93624">
        <ele>301.03</ele>
        <time>2020-06-16T12:17:46Z</time>
      </trkpt>
      <trkpt lat="49.60656" lon="4.93623">
        <ele>300.55</ele>
        <time>2020-06-16T12:18:07Z</time>
      </trkpt>
      <trkpt lat="49.60655" lon="4.93623">
        <ele>300.55</ele>
        <time>2020-06-16T12:18:28Z</time>
      </trkpt>
      <trkpt lat="49.60655" lon="4.93623">
        <ele>300.55</ele>
        <time>2020-06-16T12:18:48Z</time>
      </trkpt>
      <trkpt lat="49.60655" lon="4.93623">
        <ele>300.55</ele>
        <time>2020-06-16T12:19:08Z</time>
      </trkpt>
      <trkpt lat="49.60654" lon="4.93623">
        <ele>300.55</ele>
        <time>2020-06-16T12:19:31Z</time>
      </trkpt>
      <trkpt lat="49.60654" lon="4.93623">
        <ele>300.55</ele>
        <time>2020-06-16T12:19:52Z</time>
      </trkpt>
      <trkpt lat="49.60654" lon="4.93623">
        <ele>300.55</ele>
        <time>2020-06-16T12:20:11Z</time>
      </trkpt>
      <trkpt lat="49.60654" lon="4.93623">
        <ele>300.55</ele>
        <time>2020-06-16T12:20:33Z</time>
      </trkpt>
      <trkpt lat="49.60655" lon="4.93623">
        <ele>300.55</ele>
        <time>2020-06-16T12:20:58Z</time>
      </trkpt>
      <trkpt lat="49.60655" lon="4.93623">
        <ele>300.55</ele>
        <time>2020-06-16T12:21:25Z</time>
      </trkpt>
      <trkpt lat="49.60655" lon="4.93622">
        <ele>300.55</ele>
        <time>2020-06-16T12:21:52Z</time>
      </trkpt>
      <trkpt lat="49.60655" lon="4.93622">
        <ele>300.55</ele>
        <time>2020-06-16T12:22:16Z</time>
      </trkpt>
      <trkpt lat="49.60655" lon="4.93622">
        <ele>300.55</ele>
        <time>2020-06-16T12:22:28Z</time>
      </trkpt>
      <trkpt lat="49.60653" lon="4.93636">
        <ele>300.55</ele>
        <time>2020-06-16T12:22:39Z</time>
      </trkpt>
      <trkpt lat="49.60652" lon="4.93663">
        <ele>301.51</ele>
        <time>2020-06-16T12:22:53Z</time>
      </trkpt>
      <trkpt lat="49.60652" lon="4.9369">
        <ele>302.47</ele>
        <time>2020-06-16T12:23:08Z</time>
      </trkpt>
      <trkpt lat="49.60649" lon="4.93712">
        <ele>302.95</ele>
        <time>2020-06-16T12:23:22Z</time>
      </trkpt>
      <trkpt lat="49.60645" lon="4.93735">
        <ele>304.88</ele>
        <time>2020-06-16T12:23:38Z</time>
      </trkpt>
      <trkpt lat="49.60642" lon="4.93759">
        <ele>305.84</ele>
        <time>2020-06-16T12:23:52Z</time>
      </trkpt>
      <trkpt lat="49.6064" lon="4.93776">
        <ele>306.32</ele>
        <time>2020-06-16T12:24:04Z</time>
      </trkpt>
      <trkpt lat="49.60637" lon="4.93797">
        <ele>308.24</ele>
        <time>2020-06-16T12:24:17Z</time>
      </trkpt>
      <trkpt lat="49.60635" lon="4.93816">
        <ele>309.2</ele>
        <time>2020-06-16T12:24:28Z</time>
      </trkpt>
      <trkpt lat="49.60628" lon="4.93847">
        <ele>310.64</ele>
        <time>2020-06-16T12:24:46Z</time>
      </trkpt>
      <trkpt lat="49.60622" lon="4.93875">
        <ele>311.12</ele>
        <time>2020-06-16T12:25:04Z</time>
      </trkpt>
      <trkpt lat="49.60617" lon="4.93904">
        <ele>310.64</ele>
        <time>2020-06-16T12:25:21Z</time>
      </trkpt>
      <trkpt lat="49.60611" lon="4.93933">
        <ele>309.68</ele>
        <time>2020-06-16T12:25:37Z</time>
      </trkpt>
      <trkpt lat="49.60605" lon="4.93958">
        <ele>309.68</ele>
        <time>2020-06-16T12:25:54Z</time>
      </trkpt>
      <trkpt lat="49.60601" lon="4.93977">
        <ele>309.2</ele>
        <time>2020-06-16T12:26:08Z</time>
      </trkpt>
      <trkpt lat="49.60593" lon="4.94001">
        <ele>307.76</ele>
        <time>2020-06-16T12:26:23Z</time>
      </trkpt>
      <trkpt lat="49.60583" lon="4.94028">
        <ele>307.28</ele>
        <time>2020-06-16T12:26:41Z</time>
      </trkpt>
      <trkpt lat="49.60579" lon="4.9404">
        <ele>306.32</ele>
        <time>2020-06-16T12:26:52Z</time>
      </trkpt>
      <trkpt lat="49.60575" lon="4.94049">
        <ele>305.84</ele>
        <time>2020-06-16T12:26:57Z</time>
      </trkpt>
      <trkpt lat="49.60567" lon="4.94071">
        <ele>303.91</ele>
        <time>2020-06-16T12:27:13Z</time>
      </trkpt>
      <trkpt lat="49.60556" lon="4.94099">
        <ele>302.47</ele>
        <time>2020-06-16T12:27:30Z</time>
      </trkpt>
      <trkpt lat="49.60547" lon="4.94121">
        <ele>300.55</ele>
        <time>2020-06-16T12:27:47Z</time>
      </trkpt>
      <trkpt lat="49.6054" lon="4.94142">
        <ele>300.07</ele>
        <time>2020-06-16T12:28:01Z</time>
      </trkpt>
      <trkpt lat="49.60529" lon="4.94166">
        <ele>298.63</ele>
        <time>2020-06-16T12:28:17Z</time>
      </trkpt>
      <trkpt lat="49.6052" lon="4.9419">
        <ele>296.7</ele>
        <time>2020-06-16T12:28:34Z</time>
      </trkpt>
      <trkpt lat="49.60509" lon="4.94215">
        <ele>295.74</ele>
        <time>2020-06-16T12:28:51Z</time>
      </trkpt>
      <trkpt lat="49.60499" lon="4.94236">
        <ele>295.74</ele>
        <time>2020-06-16T12:29:07Z</time>
      </trkpt>
      <trkpt lat="49.6049" lon="4.94255">
        <ele>294.3</ele>
        <time>2020-06-16T12:29:22Z</time>
      </trkpt>
      <trkpt lat="49.60479" lon="4.94272">
        <ele>294.3</ele>
        <time>2020-06-16T12:29:37Z</time>
      </trkpt>
      <trkpt lat="49.60469" lon="4.94292">
        <ele>293.34</ele>
        <time>2020-06-16T12:29:53Z</time>
      </trkpt>
      <trkpt lat="49.60455" lon="4.94316">
        <ele>291.42</ele>
        <time>2020-06-16T12:30:11Z</time>
      </trkpt>
      <trkpt lat="49.60448" lon="4.94327">
        <ele>288.53</ele>
        <time>2020-06-16T12:30:24Z</time>
      </trkpt>
      <trkpt lat="49.60444" lon="4.94334">
        <ele>288.05</ele>
        <time>2020-06-16T12:30:29Z</time>
      </trkpt>
      <trkpt lat="49.60429" lon="4.94361">
        <ele>285.65</ele>
        <time>2020-06-16T12:30:48Z</time>
      </trkpt>
      <trkpt lat="49.60425" lon="4.94369">
        <ele>285.65</ele>
        <time>2020-06-16T12:30:57Z</time>
      </trkpt>
      <trkpt lat="49.60409" lon="4.94398">
        <ele>284.69</ele>
        <time>2020-06-16T12:31:16Z</time>
      </trkpt>
      <trkpt lat="49.60393" lon="4.94426">
        <ele>284.21</ele>
        <time>2020-06-16T12:31:37Z</time>
      </trkpt>
      <trkpt lat="49.60377" lon="4.94441">
        <ele>283.73</ele>
        <time>2020-06-16T12:31:51Z</time>
      </trkpt>
      <trkpt lat="49.60362" lon="4.94453">
        <ele>283.25</ele>
        <time>2020-06-16T12:32:10Z</time>
      </trkpt>
      <trkpt lat="49.6034" lon="4.94462">
        <ele>282.77</ele>
        <time>2020-06-16T12:32:29Z</time>
      </trkpt>
      <trkpt lat="49.60325" lon="4.94471">
        <ele>281.8</ele>
        <time>2020-06-16T12:32:47Z</time>
      </trkpt>
      <trkpt lat="49.60301" lon="4.94478">
        <ele>279.88</ele>
        <time>2020-06-16T12:33:05Z</time>
      </trkpt>
      <trkpt lat="49.60283" lon="4.94487">
        <ele>278.44</ele>
        <time>2020-06-16T12:33:23Z</time>
      </trkpt>
      <trkpt lat="49.60265" lon="4.94497">
        <ele>277</ele>
        <time>2020-06-16T12:33:41Z</time>
      </trkpt>
      <trkpt lat="49.6026" lon="4.94502">
        <ele>275.56</ele>
        <time>2020-06-16T12:33:56Z</time>
      </trkpt>
      <trkpt lat="49.60257" lon="4.94506">
        <ele>274.59</ele>
        <time>2020-06-16T12:34:14Z</time>
      </trkpt>
      <trkpt lat="49.6024" lon="4.94519">
        <ele>272.67</ele>
        <time>2020-06-16T12:34:33Z</time>
      </trkpt>
      <trkpt lat="49.60218" lon="4.94543">
        <ele>272.19</ele>
        <time>2020-06-16T12:34:52Z</time>
      </trkpt>
      <trkpt lat="49.60213" lon="4.94566">
        <ele>270.75</ele>
        <time>2020-06-16T12:35:08Z</time>
      </trkpt>
      <trkpt lat="49.60208" lon="4.94601">
        <ele>271.23</ele>
        <time>2020-06-16T12:35:28Z</time>
      </trkpt>
      <trkpt lat="49.60205" lon="4.94631">
        <ele>271.23</ele>
        <time>2020-06-16T12:35:45Z</time>
      </trkpt>
      <trkpt lat="49.60203" lon="4.94646">
        <ele>270.27</ele>
        <time>2020-06-16T12:35:54Z</time>
      </trkpt>
      <trkpt lat="49.60197" lon="4.94673">
        <ele>269.79</ele>
        <time>2020-06-16T12:36:11Z</time>
      </trkpt>
      <trkpt lat="49.60192" lon="4.94696">
        <ele>267.86</ele>
        <time>2020-06-16T12:36:26Z</time>
      </trkpt>
      <trkpt lat="49.60187" lon="4.94719">
        <ele>267.86</ele>
        <time>2020-06-16T12:36:41Z</time>
      </trkpt>
      <trkpt lat="49.60179" lon="4.94744">
        <ele>264.5</ele>
        <time>2020-06-16T12:36:55Z</time>
      </trkpt>
      <trkpt lat="49.60173" lon="4.94768">
        <ele>258.25</ele>
        <time>2020-06-16T12:37:11Z</time>
      </trkpt>
      <trkpt lat="49.60168" lon="4.94798">
        <ele>261.62</ele>
        <time>2020-06-16T12:37:29Z</time>
      </trkpt>
      <trkpt lat="49.60165" lon="4.94827">
        <ele>266.42</ele>
        <time>2020-06-16T12:37:49Z</time>
      </trkpt>
      <trkpt lat="49.60157" lon="4.94861">
        <ele>268.83</ele>
        <time>2020-06-16T12:38:07Z</time>
      </trkpt>
      <trkpt lat="49.60153" lon="4.9488">
        <ele>268.35</ele>
        <time>2020-06-16T12:38:22Z</time>
      </trkpt>
      <trkpt lat="49.60145" lon="4.94909">
        <ele>270.27</ele>
        <time>2020-06-16T12:38:40Z</time>
      </trkpt>
      <trkpt lat="49.60137" lon="4.9494">
        <ele>274.11</ele>
        <time>2020-06-16T12:38:59Z</time>
      </trkpt>
      <trkpt lat="49.60136" lon="4.94961">
        <ele>277.48</ele>
        <time>2020-06-16T12:39:13Z</time>
      </trkpt>
      <trkpt lat="49.60137" lon="4.94967">
        <ele>275.56</ele>
        <time>2020-06-16T12:39:28Z</time>
      </trkpt>
      <trkpt lat="49.60133" lon="4.94977">
        <ele>276.04</ele>
        <time>2020-06-16T12:39:44Z</time>
      </trkpt>
      <trkpt lat="49.60126" lon="4.95005">
        <ele>281.8</ele>
        <time>2020-06-16T12:40:00Z</time>
      </trkpt>
      <trkpt lat="49.6012" lon="4.95028">
        <ele>285.17</ele>
        <time>2020-06-16T12:40:15Z</time>
      </trkpt>
      <trkpt lat="49.6011" lon="4.95056">
        <ele>284.21</ele>
        <time>2020-06-16T12:40:31Z</time>
      </trkpt>
      <trkpt lat="49.60101" lon="4.95092">
        <ele>287.09</ele>
        <time>2020-06-16T12:40:49Z</time>
      </trkpt>
      <trkpt lat="49.60096" lon="4.95113">
        <ele>281.32</ele>
        <time>2020-06-16T12:40:58Z</time>
      </trkpt>
      <trkpt lat="49.60092" lon="4.95135">
        <ele>267.86</ele>
        <time>2020-06-16T12:41:13Z</time>
      </trkpt>
      <trkpt lat="49.60076" lon="4.9516">
        <ele>265.94</ele>
        <time>2020-06-16T12:41:33Z</time>
      </trkpt>
      <trkpt lat="49.6006" lon="4.95176">
        <ele>262.1</ele>
        <time>2020-06-16T12:41:50Z</time>
      </trkpt>
      <trkpt lat="49.60058" lon="4.95177">
        <ele>261.62</ele>
        <time>2020-06-16T12:41:52Z</time>
      </trkpt>
      <trkpt lat="49.60046" lon="4.95182">
        <ele>258.25</ele>
        <time>2020-06-16T12:42:09Z</time>
      </trkpt>
      <trkpt lat="49.60026" lon="4.95186">
        <ele>256.81</ele>
        <time>2020-06-16T12:42:27Z</time>
      </trkpt>
      <trkpt lat="49.60012" lon="4.95187">
        <ele>256.33</ele>
        <time>2020-06-16T12:42:42Z</time>
      </trkpt>
      <trkpt lat="49.59999" lon="4.95184">
        <ele>258.73</ele>
        <time>2020-06-16T12:43:00Z</time>
      </trkpt>
      <trkpt lat="49.59979" lon="4.95178">
        <ele>259.21</ele>
        <time>2020-06-16T12:43:17Z</time>
      </trkpt>
      <trkpt lat="49.59964" lon="4.95175">
        <ele>261.62</ele>
        <time>2020-06-16T12:43:33Z</time>
      </trkpt>
      <trkpt lat="49.59945" lon="4.95169">
        <ele>262.1</ele>
        <time>2020-06-16T12:43:52Z</time>
      </trkpt>
      <trkpt lat="49.59923" lon="4.95161">
        <ele>264.02</ele>
        <time>2020-06-16T12:44:10Z</time>
      </trkpt>
      <trkpt lat="49.59908" lon="4.95164">
        <ele>268.83</ele>
        <time>2020-06-16T12:44:24Z</time>
      </trkpt>
      <trkpt lat="49.5989" lon="4.95164">
        <ele>270.75</ele>
        <time>2020-06-16T12:44:42Z</time>
      </trkpt>
      <trkpt lat="49.59874" lon="4.95163">
        <ele>269.79</ele>
        <time>2020-06-16T12:44:54Z</time>
      </trkpt>
      <trkpt lat="49.59855" lon="4.9517">
        <ele>269.31</ele>
        <time>2020-06-16T12:45:11Z</time>
      </trkpt>
      <trkpt lat="49.59835" lon="4.95181">
        <ele>263.06</ele>
        <time>2020-06-16T12:45:29Z</time>
      </trkpt>
      <trkpt lat="49.59833" lon="4.95181">
        <ele>262.58</ele>
        <time>2020-06-16T12:45:31Z</time>
      </trkpt>
      <trkpt lat="49.59822" lon="4.95191">
        <ele>259.69</ele>
        <time>2020-06-16T12:45:44Z</time>
      </trkpt>
      <trkpt lat="49.59817" lon="4.95193">
        <ele>258.73</ele>
        <time>2020-06-16T12:45:50Z</time>
      </trkpt>
      <trkpt lat="49.59805" lon="4.95202">
        <ele>255.85</ele>
        <time>2020-06-16T12:46:02Z</time>
      </trkpt>
      <trkpt lat="49.59801" lon="4.95204">
        <ele>254.89</ele>
        <time>2020-06-16T12:46:06Z</time>
      </trkpt>
      <trkpt lat="49.5979" lon="4.95214">
        <ele>252.96</ele>
        <time>2020-06-16T12:46:20Z</time>
      </trkpt>
      <trkpt lat="49.59773" lon="4.95231">
        <ele>248.64</ele>
        <time>2020-06-16T12:46:38Z</time>
      </trkpt>
      <trkpt lat="49.59763" lon="4.95246">
        <ele>246.23</ele>
        <time>2020-06-16T12:46:53Z</time>
      </trkpt>
      <trkpt lat="49.59752" lon="4.95261">
        <ele>245.75</ele>
        <time>2020-06-16T12:47:10Z</time>
      </trkpt>
      <trkpt lat="49.59742" lon="4.95269">
        <ele>243.83</ele>
        <time>2020-06-16T12:47:24Z</time>
      </trkpt>
      <trkpt lat="49.59736" lon="4.95274">
        <ele>243.35</ele>
        <time>2020-06-16T12:47:30Z</time>
      </trkpt>
      <trkpt lat="49.59726" lon="4.95285">
        <ele>236.62</ele>
        <time>2020-06-16T12:47:43Z</time>
      </trkpt>
      <trkpt lat="49.59704" lon="4.95296">
        <ele>230.85</ele>
        <time>2020-06-16T12:48:01Z</time>
      </trkpt>
      <trkpt lat="49.59694" lon="4.953">
        <ele>227.49</ele>
        <time>2020-06-16T12:48:11Z</time>
      </trkpt>
      <trkpt lat="49.5968" lon="4.95312">
        <ele>219.8</ele>
        <time>2020-06-16T12:48:28Z</time>
      </trkpt>
      <trkpt lat="49.59663" lon="4.95323">
        <ele>216.91</ele>
        <time>2020-06-16T12:48:45Z</time>
      </trkpt>
      <trkpt lat="49.59649" lon="4.95332">
        <ele>214.51</ele>
        <time>2020-06-16T12:49:00Z</time>
      </trkpt>
      <trkpt lat="49.59634" lon="4.95343">
        <ele>216.43</ele>
        <time>2020-06-16T12:49:17Z</time>
      </trkpt>
      <trkpt lat="49.59615" lon="4.95351">
        <ele>214.03</ele>
        <time>2020-06-16T12:49:33Z</time>
      </trkpt>
      <trkpt lat="49.59607" lon="4.95356">
        <ele>210.19</ele>
        <time>2020-06-16T12:49:44Z</time>
      </trkpt>
      <trkpt lat="49.59587" lon="4.95366">
        <ele>211.15</ele>
        <time>2020-06-16T12:50:05Z</time>
      </trkpt>
      <trkpt lat="49.59564" lon="4.95378">
        <ele>213.07</ele>
        <time>2020-06-16T12:50:26Z</time>
      </trkpt>
      <trkpt lat="49.59542" lon="4.95394">
        <ele>214.51</ele>
        <time>2020-06-16T12:50:43Z</time>
      </trkpt>
      <trkpt lat="49.59532" lon="4.9541">
        <ele>214.99</ele>
        <time>2020-06-16T12:50:58Z</time>
      </trkpt>
      <trkpt lat="49.59546" lon="4.95428">
        <ele>212.11</ele>
        <time>2020-06-16T12:51:14Z</time>
      </trkpt>
      <trkpt lat="49.59549" lon="4.95428">
        <ele>212.11</ele>
        <time>2020-06-16T12:51:16Z</time>
      </trkpt>
      <trkpt lat="49.59568" lon="4.95428">
        <ele>209.22</ele>
        <time>2020-06-16T12:51:34Z</time>
      </trkpt>
      <trkpt lat="49.59591" lon="4.95432">
        <ele>207.3</ele>
        <time>2020-06-16T12:51:53Z</time>
      </trkpt>
      <trkpt lat="49.59601" lon="4.95432">
        <ele>206.82</ele>
        <time>2020-06-16T12:52:08Z</time>
      </trkpt>
      <trkpt lat="49.59625" lon="4.95443">
        <ele>206.34</ele>
        <time>2020-06-16T12:52:29Z</time>
      </trkpt>
      <trkpt lat="49.59642" lon="4.95449">
        <ele>206.34</ele>
        <time>2020-06-16T12:52:44Z</time>
      </trkpt>
      <trkpt lat="49.59653" lon="4.95451">
        <ele>207.78</ele>
        <time>2020-06-16T12:52:59Z</time>
      </trkpt>
      <trkpt lat="49.59671" lon="4.9545">
        <ele>206.82</ele>
        <time>2020-06-16T12:53:14Z</time>
      </trkpt>
      <trkpt lat="49.5969" lon="4.95455">
        <ele>206.82</ele>
        <time>2020-06-16T12:53:34Z</time>
      </trkpt>
      <trkpt lat="49.59707" lon="4.95456">
        <ele>208.74</ele>
        <time>2020-06-16T12:53:51Z</time>
      </trkpt>
      <trkpt lat="49.59727" lon="4.95462">
        <ele>209.7</ele>
        <time>2020-06-16T12:54:11Z</time>
      </trkpt>
      <trkpt lat="49.59746" lon="4.95463">
        <ele>209.7</ele>
        <time>2020-06-16T12:54:26Z</time>
      </trkpt>
      <trkpt lat="49.59762" lon="4.9546">
        <ele>206.82</ele>
        <time>2020-06-16T12:54:44Z</time>
      </trkpt>
      <trkpt lat="49.59785" lon="4.95462">
        <ele>203.46</ele>
        <time>2020-06-16T12:55:01Z</time>
      </trkpt>
      <trkpt lat="49.598" lon="4.95462">
        <ele>202.01</ele>
        <time>2020-06-16T12:55:18Z</time>
      </trkpt>
      <trkpt lat="49.59815" lon="4.95463">
        <ele>200.57</ele>
        <time>2020-06-16T12:55:29Z</time>
      </trkpt>
      <trkpt lat="49.59831" lon="4.95464">
        <ele>198.17</ele>
        <time>2020-06-16T12:55:45Z</time>
      </trkpt>
      <trkpt lat="49.59843" lon="4.95466">
        <ele>196.25</ele>
        <time>2020-06-16T12:55:58Z</time>
      </trkpt>
      <trkpt lat="49.59847" lon="4.95469">
        <ele>196.25</ele>
        <time>2020-06-16T12:56:02Z</time>
      </trkpt>
      <trkpt lat="49.5986" lon="4.95475">
        <ele>195.77</ele>
        <time>2020-06-16T12:56:16Z</time>
      </trkpt>
      <trkpt lat="49.59873" lon="4.95483">
        <ele>195.28</ele>
        <time>2020-06-16T12:56:30Z</time>
      </trkpt>
      <trkpt lat="49.59875" lon="4.9548">
        <ele>196.25</ele>
        <time>2020-06-16T12:56:44Z</time>
      </trkpt>
      <trkpt lat="49.59879" lon="4.95478">
        <ele>196.73</ele>
        <time>2020-06-16T12:56:58Z</time>
      </trkpt>
      <trkpt lat="49.5988" lon="4.95477">
        <ele>196.73</ele>
        <time>2020-06-16T12:56:59Z</time>
      </trkpt>
      <trkpt lat="49.59887" lon="4.95469">
        <ele>196.73</ele>
        <time>2020-06-16T12:57:08Z</time>
      </trkpt>
      <trkpt lat="49.59905" lon="4.95464">
        <ele>197.21</ele>
        <time>2020-06-16T12:57:23Z</time>
      </trkpt>
      <trkpt lat="49.59921" lon="4.9546">
        <ele>198.17</ele>
        <time>2020-06-16T12:57:40Z</time>
      </trkpt>
      <trkpt lat="49.59933" lon="4.95468">
        <ele>197.69</ele>
        <time>2020-06-16T12:57:55Z</time>
      </trkpt>
      <trkpt lat="49.59946" lon="4.95477">
        <ele>196.73</ele>
        <time>2020-06-16T12:58:10Z</time>
      </trkpt>
      <trkpt lat="49.59958" lon="4.95483">
        <ele>196.25</ele>
        <time>2020-06-16T12:58:22Z</time>
      </trkpt>
      <trkpt lat="49.59974" lon="4.95495">
        <ele>200.57</ele>
        <time>2020-06-16T12:58:36Z</time>
      </trkpt>
      <trkpt lat="49.59976" lon="4.95497">
        <ele>201.53</ele>
        <time>2020-06-16T12:58:39Z</time>
      </trkpt>
      <trkpt lat="49.5999" lon="4.95505">
        <ele>204.42</ele>
        <time>2020-06-16T12:58:55Z</time>
      </trkpt>
      <trkpt lat="49.60003" lon="4.95512">
        <ele>205.38</ele>
        <time>2020-06-16T12:59:08Z</time>
      </trkpt>
      <trkpt lat="49.60017" lon="4.95523">
        <ele>206.34</ele>
        <time>2020-06-16T12:59:23Z</time>
      </trkpt>
      <trkpt lat="49.60028" lon="4.95532">
        <ele>206.34</ele>
        <time>2020-06-16T12:59:36Z</time>
      </trkpt>
      <trkpt lat="49.60044" lon="4.95544">
        <ele>208.26</ele>
        <time>2020-06-16T12:59:52Z</time>
      </trkpt>
      <trkpt lat="49.60061" lon="4.95555">
        <ele>209.7</ele>
        <time>2020-06-16T13:00:06Z</time>
      </trkpt>
      <trkpt lat="49.60077" lon="4.95558">
        <ele>206.34</ele>
        <time>2020-06-16T13:00:23Z</time>
      </trkpt>
      <trkpt lat="49.60092" lon="4.95557">
        <ele>205.38</ele>
        <time>2020-06-16T13:00:36Z</time>
      </trkpt>
      <trkpt lat="49.60111" lon="4.95549">
        <ele>203.94</ele>
        <time>2020-06-16T13:00:52Z</time>
      </trkpt>
      <trkpt lat="49.60127" lon="4.95538">
        <ele>202.01</ele>
        <time>2020-06-16T13:01:07Z</time>
      </trkpt>
      <trkpt lat="49.60141" lon="4.95533">
        <ele>201.05</ele>
        <time>2020-06-16T13:01:21Z</time>
      </trkpt>
      <trkpt lat="49.60155" lon="4.95528">
        <ele>201.05</ele>
        <time>2020-06-16T13:01:34Z</time>
      </trkpt>
      <trkpt lat="49.6017" lon="4.95523">
        <ele>202.01</ele>
        <time>2020-06-16T13:01:48Z</time>
      </trkpt>
      <trkpt lat="49.60186" lon="4.95521">
        <ele>203.94</ele>
        <time>2020-06-16T13:02:04Z</time>
      </trkpt>
      <trkpt lat="49.60188" lon="4.95517">
        <ele>203.94</ele>
        <time>2020-06-16T13:02:21Z</time>
      </trkpt>
      <trkpt lat="49.60199" lon="4.95516">
        <ele>203.94</ele>
        <time>2020-06-16T13:02:33Z</time>
      </trkpt>
      <trkpt lat="49.60216" lon="4.95515">
        <ele>204.9</ele>
        <time>2020-06-16T13:02:48Z</time>
      </trkpt>
      <trkpt lat="49.60234" lon="4.95518">
        <ele>205.38</ele>
        <time>2020-06-16T13:03:04Z</time>
      </trkpt>
      <trkpt lat="49.60248" lon="4.95522">
        <ele>203.94</ele>
        <time>2020-06-16T13:03:18Z</time>
      </trkpt>
      <trkpt lat="49.60266" lon="4.95536">
        <ele>198.17</ele>
        <time>2020-06-16T13:03:35Z</time>
      </trkpt>
      <trkpt lat="49.60276" lon="4.95547">
        <ele>195.28</ele>
        <time>2020-06-16T13:03:48Z</time>
      </trkpt>
      <trkpt lat="49.60279" lon="4.95547">
        <ele>196.25</ele>
        <time>2020-06-16T13:04:02Z</time>
      </trkpt>
      <trkpt lat="49.6028" lon="4.95546">
        <ele>197.69</ele>
        <time>2020-06-16T13:04:25Z</time>
      </trkpt>
      <trkpt lat="49.60281" lon="4.95546">
        <ele>197.21</ele>
        <time>2020-06-16T13:04:47Z</time>
      </trkpt>
      <trkpt lat="49.6028" lon="4.95546">
        <ele>197.21</ele>
        <time>2020-06-16T13:05:08Z</time>
      </trkpt>
      <trkpt lat="49.60285" lon="4.95547">
        <ele>196.25</ele>
        <time>2020-06-16T13:05:17Z</time>
      </trkpt>
      <trkpt lat="49.60292" lon="4.95544">
        <ele>196.73</ele>
        <time>2020-06-16T13:05:22Z</time>
      </trkpt>
      <trkpt lat="49.6031" lon="4.95535">
        <ele>199.13</ele>
        <time>2020-06-16T13:05:37Z</time>
      </trkpt>
      <trkpt lat="49.60322" lon="4.95532">
        <ele>200.57</ele>
        <time>2020-06-16T13:05:50Z</time>
      </trkpt>
      <trkpt lat="49.6034" lon="4.95542">
        <ele>206.82</ele>
        <time>2020-06-16T13:06:07Z</time>
      </trkpt>
      <trkpt lat="49.60351" lon="4.95547">
        <ele>210.67</ele>
        <time>2020-06-16T13:06:20Z</time>
      </trkpt>
      <trkpt lat="49.60369" lon="4.95548">
        <ele>205.86</ele>
        <time>2020-06-16T13:06:38Z</time>
      </trkpt>
      <trkpt lat="49.60375" lon="4.95547">
        <ele>205.38</ele>
        <time>2020-06-16T13:06:43Z</time>
      </trkpt>
      <trkpt lat="49.60389" lon="4.95545">
        <ele>203.46</ele>
        <time>2020-06-16T13:06:58Z</time>
      </trkpt>
      <trkpt lat="49.60407" lon="4.95545">
        <ele>201.05</ele>
        <time>2020-06-16T13:07:12Z</time>
      </trkpt>
      <trkpt lat="49.60424" lon="4.95534">
        <ele>198.65</ele>
        <time>2020-06-16T13:07:27Z</time>
      </trkpt>
      <trkpt lat="49.60429" lon="4.95529">
        <ele>196.73</ele>
        <time>2020-06-16T13:07:34Z</time>
      </trkpt>
      <trkpt lat="49.60444" lon="4.95519">
        <ele>196.25</ele>
        <time>2020-06-16T13:07:49Z</time>
      </trkpt>
      <trkpt lat="49.60463" lon="4.95509">
        <ele>197.69</ele>
        <time>2020-06-16T13:08:06Z</time>
      </trkpt>
      <trkpt lat="49.60478" lon="4.95499">
        <ele>198.17</ele>
        <time>2020-06-16T13:08:21Z</time>
      </trkpt>
      <trkpt lat="49.60495" lon="4.95489">
        <ele>199.13</ele>
        <time>2020-06-16T13:08:36Z</time>
      </trkpt>
      <trkpt lat="49.60508" lon="4.95481">
        <ele>200.57</ele>
        <time>2020-06-16T13:08:50Z</time>
      </trkpt>
      <trkpt lat="49.60521" lon="4.95471">
        <ele>201.53</ele>
        <time>2020-06-16T13:09:03Z</time>
      </trkpt>
      <trkpt lat="49.60531" lon="4.95458">
        <ele>202.49</ele>
        <time>2020-06-16T13:09:16Z</time>
      </trkpt>
      <trkpt lat="49.60533" lon="4.95457">
        <ele>202.49</ele>
        <time>2020-06-16T13:09:19Z</time>
      </trkpt>
      <trkpt lat="49.6054" lon="4.95455">
        <ele>202.98</ele>
        <time>2020-06-16T13:09:26Z</time>
      </trkpt>
      <trkpt lat="49.60547" lon="4.95452">
        <ele>201.53</ele>
        <time>2020-06-16T13:09:35Z</time>
      </trkpt>
      <trkpt lat="49.60562" lon="4.95449">
        <ele>198.65</ele>
        <time>2020-06-16T13:09:50Z</time>
      </trkpt>
      <trkpt lat="49.60572" lon="4.95447">
        <ele>197.69</ele>
        <time>2020-06-16T13:10:03Z</time>
      </trkpt>
      <trkpt lat="49.60583" lon="4.95443">
        <ele>196.25</ele>
        <time>2020-06-16T13:10:17Z</time>
      </trkpt>
      <trkpt lat="49.60583" lon="4.95441">
        <ele>196.73</ele>
        <time>2020-06-16T13:10:31Z</time>
      </trkpt>
      <trkpt lat="49.60584" lon="4.95441">
        <ele>197.21</ele>
        <time>2020-06-16T13:10:37Z</time>
      </trkpt>
      <trkpt lat="49.606" lon="4.95445">
        <ele>198.17</ele>
        <time>2020-06-16T13:10:52Z</time>
      </trkpt>
      <trkpt lat="49.60614" lon="4.95437">
        <ele>197.69</ele>
        <time>2020-06-16T13:11:06Z</time>
      </trkpt>
      <trkpt lat="49.60629" lon="4.95433">
        <ele>193.84</ele>
        <time>2020-06-16T13:11:21Z</time>
      </trkpt>
      <trkpt lat="49.60646" lon="4.95432">
        <ele>193.84</ele>
        <time>2020-06-16T13:11:36Z</time>
      </trkpt>
      <trkpt lat="49.60662" lon="4.95426">
        <ele>190.48</ele>
        <time>2020-06-16T13:11:52Z</time>
      </trkpt>
      <trkpt lat="49.60666" lon="4.95423">
        <ele>189.04</ele>
        <time>2020-06-16T13:11:57Z</time>
      </trkpt>
      <trkpt lat="49.60683" lon="4.9542">
        <ele>185.67</ele>
        <time>2020-06-16T13:12:13Z</time>
      </trkpt>
      <trkpt lat="49.60698" lon="4.95419">
        <ele>186.63</ele>
        <time>2020-06-16T13:12:28Z</time>
      </trkpt>
      <trkpt lat="49.60716" lon="4.95415">
        <ele>186.63</ele>
        <time>2020-06-16T13:12:44Z</time>
      </trkpt>
      <trkpt lat="49.60729" lon="4.95412">
        <ele>186.15</ele>
        <time>2020-06-16T13:12:58Z</time>
      </trkpt>
      <trkpt lat="49.60746" lon="4.95411">
        <ele>188.08</ele>
        <time>2020-06-16T13:13:13Z</time>
      </trkpt>
      <trkpt lat="49.6076" lon="4.95411">
        <ele>188.56</ele>
        <time>2020-06-16T13:13:28Z</time>
      </trkpt>
      <trkpt lat="49.60775" lon="4.9541">
        <ele>188.56</ele>
        <time>2020-06-16T13:13:41Z</time>
      </trkpt>
      <trkpt lat="49.60777" lon="4.95411">
        <ele>188.08</ele>
        <time>2020-06-16T13:13:43Z</time>
      </trkpt>
      <trkpt lat="49.60789" lon="4.95414">
        <ele>187.59</ele>
        <time>2020-06-16T13:13:56Z</time>
      </trkpt>
      <trkpt lat="49.60793" lon="4.95416">
        <ele>187.59</ele>
        <time>2020-06-16T13:14:00Z</time>
      </trkpt>
      <trkpt lat="49.60807" lon="4.95423">
        <ele>192.88</ele>
        <time>2020-06-16T13:14:15Z</time>
      </trkpt>
      <trkpt lat="49.60818" lon="4.95428">
        <ele>196.25</ele>
        <time>2020-06-16T13:14:29Z</time>
      </trkpt>
      <trkpt lat="49.60819" lon="4.95428">
        <ele>196.25</ele>
        <time>2020-06-16T13:14:30Z</time>
      </trkpt>
      <trkpt lat="49.60828" lon="4.95432">
        <ele>197.69</ele>
        <time>2020-06-16T13:14:42Z</time>
      </trkpt>
      <trkpt lat="49.60843" lon="4.95442">
        <ele>193.36</ele>
        <time>2020-06-16T13:14:56Z</time>
      </trkpt>
      <trkpt lat="49.60852" lon="4.95456">
        <ele>188.08</ele>
        <time>2020-06-16T13:15:10Z</time>
      </trkpt>
      <trkpt lat="49.60865" lon="4.95462">
        <ele>185.67</ele>
        <time>2020-06-16T13:15:24Z</time>
      </trkpt>
      <trkpt lat="49.60866" lon="4.95464">
        <ele>185.19</ele>
        <time>2020-06-16T13:15:28Z</time>
      </trkpt>
      <trkpt lat="49.60867" lon="4.95471">
        <ele>184.71</ele>
        <time>2020-06-16T13:15:33Z</time>
      </trkpt>
      <trkpt lat="49.60877" lon="4.95484">
        <ele>183.75</ele>
        <time>2020-06-16T13:15:47Z</time>
      </trkpt>
      <trkpt lat="49.60889" lon="4.95494">
        <ele>186.63</ele>
        <time>2020-06-16T13:16:02Z</time>
      </trkpt>
      <trkpt lat="49.60901" lon="4.95498">
        <ele>185.67</ele>
        <time>2020-06-16T13:16:14Z</time>
      </trkpt>
      <trkpt lat="49.60903" lon="4.95501">
        <ele>184.71</ele>
        <time>2020-06-16T13:16:18Z</time>
      </trkpt>
      <trkpt lat="49.60907" lon="4.95496">
        <ele>183.27</ele>
        <time>2020-06-16T13:16:33Z</time>
      </trkpt>
      <trkpt lat="49.60919" lon="4.95487">
        <ele>181.83</ele>
        <time>2020-06-16T13:16:54Z</time>
      </trkpt>
      <trkpt lat="49.60918" lon="4.95485">
        <ele>180.87</ele>
        <time>2020-06-16T13:16:59Z</time>
      </trkpt>
      <trkpt lat="49.60906" lon="4.95459">
        <ele>179.42</ele>
        <time>2020-06-16T13:17:24Z</time>
      </trkpt>
      <trkpt lat="49.6092" lon="4.95454">
        <ele>179.42</ele>
        <time>2020-06-16T13:17:44Z</time>
      </trkpt>
      <trkpt lat="49.60905" lon="4.95488">
        <ele>179.42</ele>
        <time>2020-06-16T13:18:22Z</time>
      </trkpt>
      <trkpt lat="49.60899" lon="4.95494">
        <ele>184.23</ele>
        <time>2020-06-16T13:18:33Z</time>
      </trkpt>
      <trkpt lat="49.60891" lon="4.9549">
        <ele>186.15</ele>
        <time>2020-06-16T13:18:44Z</time>
      </trkpt>
      <trkpt lat="49.60888" lon="4.95487">
        <ele>188.08</ele>
        <time>2020-06-16T13:18:55Z</time>
      </trkpt>
      <trkpt lat="49.60889" lon="4.95488">
        <ele>189.04</ele>
        <time>2020-06-16T13:19:10Z</time>
      </trkpt>
      <trkpt lat="49.60888" lon="4.95487">
        <ele>192.4</ele>
        <time>2020-06-16T13:19:34Z</time>
      </trkpt>
      <trkpt lat="49.60888" lon="4.95485">
        <ele>195.28</ele>
        <time>2020-06-16T13:19:48Z</time>
      </trkpt>
      <trkpt lat="49.60887" lon="4.95486">
        <ele>197.21</ele>
        <time>2020-06-16T13:20:10Z</time>
      </trkpt>
      <trkpt lat="49.60888" lon="4.95484">
        <ele>197.21</ele>
        <time>2020-06-16T13:20:37Z</time>
      </trkpt>
      <trkpt lat="49.60888" lon="4.95484">
        <ele>198.17</ele>
        <time>2020-06-16T13:21:07Z</time>
      </trkpt>
      <trkpt lat="49.60888" lon="4.95483">
        <ele>198.17</ele>
        <time>2020-06-16T13:21:34Z</time>
      </trkpt>
      <trkpt lat="49.60887" lon="4.95483">
        <ele>198.17</ele>
        <time>2020-06-16T13:21:56Z</time>
      </trkpt>
      <trkpt lat="49.60888" lon="4.95484">
        <ele>198.65</ele>
        <time>2020-06-16T13:22:17Z</time>
      </trkpt>
      <trkpt lat="49.60887" lon="4.95485">
        <ele>199.61</ele>
        <time>2020-06-16T13:22:39Z</time>
      </trkpt>
      <trkpt lat="49.60887" lon="4.95484">
        <ele>200.09</ele>
        <time>2020-06-16T13:23:01Z</time>
      </trkpt>
      <trkpt lat="49.60887" lon="4.95484">
        <ele>199.13</ele>
        <time>2020-06-16T13:23:26Z</time>
      </trkpt>
      <trkpt lat="49.60887" lon="4.95484">
        <ele>200.09</ele>
        <time>2020-06-16T13:23:52Z</time>
      </trkpt>
      <trkpt lat="49.60888" lon="4.95484">
        <ele>201.53</ele>
        <time>2020-06-16T13:24:18Z</time>
      </trkpt>
      <trkpt lat="49.60888" lon="4.95483">
        <ele>202.01</ele>
        <time>2020-06-16T13:24:47Z</time>
      </trkpt>
      <trkpt lat="49.60888" lon="4.95483">
        <ele>202.01</ele>
        <time>2020-06-16T13:25:14Z</time>
      </trkpt>
      <trkpt lat="49.60888" lon="4.95484">
        <ele>202.98</ele>
        <time>2020-06-16T13:25:41Z</time>
      </trkpt>
      <trkpt lat="49.60888" lon="4.95484">
        <ele>202.49</ele>
        <time>2020-06-16T13:26:07Z</time>
      </trkpt>
      <trkpt lat="49.60887" lon="4.95483">
        <ele>202.49</ele>
        <time>2020-06-16T13:26:31Z</time>
      </trkpt>
      <trkpt lat="49.60887" lon="4.95483">
        <ele>202.01</ele>
        <time>2020-06-16T13:27:00Z</time>
      </trkpt>
      <trkpt lat="49.60888" lon="4.95483">
        <ele>202.49</ele>
        <time>2020-06-16T13:27:34Z</time>
      </trkpt>
      <trkpt lat="49.60888" lon="4.95483">
        <ele>201.53</ele>
        <time>2020-06-16T13:28:05Z</time>
      </trkpt>
      <trkpt lat="49.6089" lon="4.95481">
        <ele>202.01</ele>
        <time>2020-06-16T13:28:41Z</time>
      </trkpt>
      <trkpt lat="49.60889" lon="4.95481">
        <ele>202.49</ele>
        <time>2020-06-16T13:29:17Z</time>
      </trkpt>
      <trkpt lat="49.60888" lon="4.95482">
        <ele>201.53</ele>
        <time>2020-06-16T13:29:41Z</time>
      </trkpt>
      <trkpt lat="49.60887" lon="4.95484">
        <ele>200.09</ele>
        <time>2020-06-16T13:30:10Z</time>
      </trkpt>
      <trkpt lat="49.60886" lon="4.95484">
        <ele>199.13</ele>
        <time>2020-06-16T13:30:39Z</time>
      </trkpt>
      <trkpt lat="49.60886" lon="4.95486">
        <ele>197.21</ele>
        <time>2020-06-16T13:31:06Z</time>
      </trkpt>
      <trkpt lat="49.60886" lon="4.95486">
        <ele>196.25</ele>
        <time>2020-06-16T13:31:36Z</time>
      </trkpt>
      <trkpt lat="49.60886" lon="4.95487">
        <ele>194.32</ele>
        <time>2020-06-16T13:32:17Z</time>
      </trkpt>
      <trkpt lat="49.60886" lon="4.95487">
        <ele>193.36</ele>
        <time>2020-06-16T13:32:52Z</time>
      </trkpt>
      <trkpt lat="49.60887" lon="4.95486">
        <ele>191.92</ele>
        <time>2020-06-16T13:33:18Z</time>
      </trkpt>
      <trkpt lat="49.60887" lon="4.95485">
        <ele>189.52</ele>
        <time>2020-06-16T13:33:44Z</time>
      </trkpt>
      <trkpt lat="49.60888" lon="4.95486">
        <ele>188.08</ele>
        <time>2020-06-16T13:34:16Z</time>
      </trkpt>
      <trkpt lat="49.60888" lon="4.95486">
        <ele>188.08</ele>
        <time>2020-06-16T13:34:34Z</time>
      </trkpt>
      <trkpt lat="49.60886" lon="4.95484">
        <ele>187.59</ele>
        <time>2020-06-16T13:34:52Z</time>
      </trkpt>
      <trkpt lat="49.60884" lon="4.95482">
        <ele>187.59</ele>
        <time>2020-06-16T13:34:56Z</time>
      </trkpt>
      <trkpt lat="49.60874" lon="4.95473">
        <ele>186.63</ele>
        <time>2020-06-16T13:35:10Z</time>
      </trkpt>
      <trkpt lat="49.60873" lon="4.9547">
        <ele>186.63</ele>
        <time>2020-06-16T13:35:12Z</time>
      </trkpt>
      <trkpt lat="49.60874" lon="4.95455">
        <ele>187.59</ele>
        <time>2020-06-16T13:35:26Z</time>
      </trkpt>
      <trkpt lat="49.60877" lon="4.95455">
        <ele>188.08</ele>
        <time>2020-06-16T13:35:32Z</time>
      </trkpt>
      <trkpt lat="49.60889" lon="4.95461">
        <ele>187.59</ele>
        <time>2020-06-16T13:35:45Z</time>
      </trkpt>
      <trkpt lat="49.60902" lon="4.9547">
        <ele>188.08</ele>
        <time>2020-06-16T13:35:58Z</time>
      </trkpt>
      <trkpt lat="49.60915" lon="4.95476">
        <ele>189.52</ele>
        <time>2020-06-16T13:36:11Z</time>
      </trkpt>
      <trkpt lat="49.60926" lon="4.95481">
        <ele>190.48</ele>
        <time>2020-06-16T13:36:23Z</time>
      </trkpt>
      <trkpt lat="49.60936" lon="4.95488">
        <ele>190.48</ele>
        <time>2020-06-16T13:36:36Z</time>
      </trkpt>
      <trkpt lat="49.6095" lon="4.95495">
        <ele>191.44</ele>
        <time>2020-06-16T13:36:50Z</time>
      </trkpt>
      <trkpt lat="49.6096" lon="4.95498">
        <ele>189.52</ele>
        <time>2020-06-16T13:37:03Z</time>
      </trkpt>
      <trkpt lat="49.60974" lon="4.95507">
        <ele>188.08</ele>
        <time>2020-06-16T13:37:19Z</time>
      </trkpt>
      <trkpt lat="49.60977" lon="4.95509">
        <ele>188.56</ele>
        <time>2020-06-16T13:37:22Z</time>
      </trkpt>
      <trkpt lat="49.6099" lon="4.95517">
        <ele>187.11</ele>
        <time>2020-06-16T13:37:35Z</time>
      </trkpt>
      <trkpt lat="49.61006" lon="4.95525">
        <ele>189.04</ele>
        <time>2020-06-16T13:37:50Z</time>
      </trkpt>
      <trkpt lat="49.61013" lon="4.95531">
        <ele>188.56</ele>
        <time>2020-06-16T13:38:00Z</time>
      </trkpt>
      <trkpt lat="49.61025" lon="4.95537">
        <ele>190.96</ele>
        <time>2020-06-16T13:38:14Z</time>
      </trkpt>
      <trkpt lat="49.61037" lon="4.95544">
        <ele>191.92</ele>
        <time>2020-06-16T13:38:28Z</time>
      </trkpt>
      <trkpt lat="49.61045" lon="4.95549">
        <ele>192.4</ele>
        <time>2020-06-16T13:38:38Z</time>
      </trkpt>
      <trkpt lat="49.61066" lon="4.95552">
        <ele>192.88</ele>
        <time>2020-06-16T13:38:54Z</time>
      </trkpt>
      <trkpt lat="49.61084" lon="4.95542">
        <ele>193.84</ele>
        <time>2020-06-16T13:39:10Z</time>
      </trkpt>
      <trkpt lat="49.61095" lon="4.95534">
        <ele>196.25</ele>
        <time>2020-06-16T13:39:24Z</time>
      </trkpt>
      <trkpt lat="49.61101" lon="4.95532">
        <ele>198.17</ele>
        <time>2020-06-16T13:39:31Z</time>
      </trkpt>
      <trkpt lat="49.61115" lon="4.95534">
        <ele>200.57</ele>
        <time>2020-06-16T13:39:46Z</time>
      </trkpt>
      <trkpt lat="49.61131" lon="4.95537">
        <ele>198.17</ele>
        <time>2020-06-16T13:40:00Z</time>
      </trkpt>
      <trkpt lat="49.61141" lon="4.95539">
        <ele>198.17</ele>
        <time>2020-06-16T13:40:12Z</time>
      </trkpt>
      <trkpt lat="49.6115" lon="4.95541">
        <ele>199.13</ele>
        <time>2020-06-16T13:40:21Z</time>
      </trkpt>
      <trkpt lat="49.61165" lon="4.95549">
        <ele>199.61</ele>
        <time>2020-06-16T13:40:35Z</time>
      </trkpt>
      <trkpt lat="49.61179" lon="4.95555">
        <ele>202.49</ele>
        <time>2020-06-16T13:40:50Z</time>
      </trkpt>
      <trkpt lat="49.61191" lon="4.95557">
        <ele>201.53</ele>
        <time>2020-06-16T13:41:03Z</time>
      </trkpt>
      <trkpt lat="49.61207" lon="4.95564">
        <ele>202.01</ele>
        <time>2020-06-16T13:41:17Z</time>
      </trkpt>
      <trkpt lat="49.61225" lon="4.95572">
        <ele>202.01</ele>
        <time>2020-06-16T13:41:34Z</time>
      </trkpt>
      <trkpt lat="49.61241" lon="4.95576">
        <ele>203.46</ele>
        <time>2020-06-16T13:41:48Z</time>
      </trkpt>
      <trkpt lat="49.61247" lon="4.95579">
        <ele>204.9</ele>
        <time>2020-06-16T13:41:55Z</time>
      </trkpt>
      <trkpt lat="49.61257" lon="4.95586">
        <ele>207.3</ele>
        <time>2020-06-16T13:42:09Z</time>
      </trkpt>
      <trkpt lat="49.6127" lon="4.95593">
        <ele>203.46</ele>
        <time>2020-06-16T13:42:24Z</time>
      </trkpt>
      <trkpt lat="49.61287" lon="4.95605">
        <ele>198.17</ele>
        <time>2020-06-16T13:42:41Z</time>
      </trkpt>
      <trkpt lat="49.61302" lon="4.95615">
        <ele>202.01</ele>
        <time>2020-06-16T13:42:57Z</time>
      </trkpt>
      <trkpt lat="49.61307" lon="4.9562">
        <ele>203.46</ele>
        <time>2020-06-16T13:43:02Z</time>
      </trkpt>
      <trkpt lat="49.61321" lon="4.95626">
        <ele>206.34</ele>
        <time>2020-06-16T13:43:15Z</time>
      </trkpt>
      <trkpt lat="49.61325" lon="4.95631">
        <ele>206.82</ele>
        <time>2020-06-16T13:43:19Z</time>
      </trkpt>
      <trkpt lat="49.61328" lon="4.95634">
        <ele>207.3</ele>
        <time>2020-06-16T13:43:26Z</time>
      </trkpt>
      <trkpt lat="49.61329" lon="4.95643">
        <ele>207.3</ele>
        <time>2020-06-16T13:43:32Z</time>
      </trkpt>
      <trkpt lat="49.61334" lon="4.95663">
        <ele>205.86</ele>
        <time>2020-06-16T13:43:47Z</time>
      </trkpt>
      <trkpt lat="49.61339" lon="4.95679">
        <ele>205.38</ele>
        <time>2020-06-16T13:43:58Z</time>
      </trkpt>
      <trkpt lat="49.61349" lon="4.95697">
        <ele>202.49</ele>
        <time>2020-06-16T13:44:11Z</time>
      </trkpt>
      <trkpt lat="49.61355" lon="4.95705">
        <ele>200.09</ele>
        <time>2020-06-16T13:44:19Z</time>
      </trkpt>
      <trkpt lat="49.61362" lon="4.95715">
        <ele>199.61</ele>
        <time>2020-06-16T13:44:28Z</time>
      </trkpt>
      <trkpt lat="49.61373" lon="4.95729">
        <ele>198.65</ele>
        <time>2020-06-16T13:44:41Z</time>
      </trkpt>
      <trkpt lat="49.61375" lon="4.95731">
        <ele>198.65</ele>
        <time>2020-06-16T13:44:43Z</time>
      </trkpt>
      <trkpt lat="49.61379" lon="4.95738">
        <ele>199.13</ele>
        <time>2020-06-16T13:44:48Z</time>
      </trkpt>
      <trkpt lat="49.61388" lon="4.9575">
        <ele>198.65</ele>
        <time>2020-06-16T13:44:59Z</time>
      </trkpt>
      <trkpt lat="49.61399" lon="4.95764">
        <ele>199.61</ele>
        <time>2020-06-16T13:45:13Z</time>
      </trkpt>
      <trkpt lat="49.614" lon="4.95766">
        <ele>199.61</ele>
        <time>2020-06-16T13:45:14Z</time>
      </trkpt>
      <trkpt lat="49.61411" lon="4.95779">
        <ele>198.17</ele>
        <time>2020-06-16T13:45:28Z</time>
      </trkpt>
      <trkpt lat="49.61416" lon="4.95776">
        <ele>197.21</ele>
        <time>2020-06-16T13:45:41Z</time>
      </trkpt>
      <trkpt lat="49.61417" lon="4.95774">
        <ele>196.25</ele>
        <time>2020-06-16T13:45:57Z</time>
      </trkpt>
      <trkpt lat="49.61418" lon="4.95772">
        <ele>195.28</ele>
        <time>2020-06-16T13:46:27Z</time>
      </trkpt>
      <trkpt lat="49.61418" lon="4.95776">
        <ele>196.73</ele>
        <time>2020-06-16T13:46:56Z</time>
      </trkpt>
      <trkpt lat="49.61418" lon="4.95777">
        <ele>197.21</ele>
        <time>2020-06-16T13:47:14Z</time>
      </trkpt>
      <trkpt lat="49.6142" lon="4.95779">
        <ele>197.21</ele>
        <time>2020-06-16T13:47:27Z</time>
      </trkpt>
      <trkpt lat="49.61421" lon="4.95779">
        <ele>199.13</ele>
        <time>2020-06-16T13:47:44Z</time>
      </trkpt>
      <trkpt lat="49.61421" lon="4.95774">
        <ele>198.17</ele>
        <time>2020-06-16T13:48:01Z</time>
      </trkpt>
      <trkpt lat="49.61418" lon="4.95771">
        <ele>195.77</ele>
        <time>2020-06-16T13:48:24Z</time>
      </trkpt>
      <trkpt lat="49.61418" lon="4.95771">
        <ele>194.32</ele>
        <time>2020-06-16T13:48:52Z</time>
      </trkpt>
      <trkpt lat="49.6142" lon="4.95773">
        <ele>193.36</ele>
        <time>2020-06-16T13:49:07Z</time>
      </trkpt>
      <trkpt lat="49.61423" lon="4.95777">
        <ele>192.88</ele>
        <time>2020-06-16T13:49:22Z</time>
      </trkpt>
      <trkpt lat="49.61427" lon="4.95784">
        <ele>193.84</ele>
        <time>2020-06-16T13:49:36Z</time>
      </trkpt>
      <trkpt lat="49.61437" lon="4.95794">
        <ele>193.84</ele>
        <time>2020-06-16T13:49:49Z</time>
      </trkpt>
      <trkpt lat="49.61451" lon="4.95807">
        <ele>193.84</ele>
        <time>2020-06-16T13:50:04Z</time>
      </trkpt>
      <trkpt lat="49.61463" lon="4.95819">
        <ele>195.28</ele>
        <time>2020-06-16T13:50:18Z</time>
      </trkpt>
      <trkpt lat="49.61474" lon="4.9583">
        <ele>197.21</ele>
        <time>2020-06-16T13:50:30Z</time>
      </trkpt>
      <trkpt lat="49.61488" lon="4.95838">
        <ele>196.73</ele>
        <time>2020-06-16T13:50:45Z</time>
      </trkpt>
      <trkpt lat="49.61502" lon="4.95849">
        <ele>196.73</ele>
        <time>2020-06-16T13:51:00Z</time>
      </trkpt>
      <trkpt lat="49.61515" lon="4.95854">
        <ele>197.69</ele>
        <time>2020-06-16T13:51:13Z</time>
      </trkpt>
      <trkpt lat="49.61528" lon="4.95859">
        <ele>198.65</ele>
        <time>2020-06-16T13:51:26Z</time>
      </trkpt>
      <trkpt lat="49.61542" lon="4.95868">
        <ele>197.69</ele>
        <time>2020-06-16T13:51:41Z</time>
      </trkpt>
      <trkpt lat="49.61556" lon="4.95876">
        <ele>198.65</ele>
        <time>2020-06-16T13:51:55Z</time>
      </trkpt>
      <trkpt lat="49.6157" lon="4.95884">
        <ele>199.13</ele>
        <time>2020-06-16T13:52:08Z</time>
      </trkpt>
      <trkpt lat="49.61587" lon="4.95893">
        <ele>197.69</ele>
        <time>2020-06-16T13:52:24Z</time>
      </trkpt>
      <trkpt lat="49.61602" lon="4.95904">
        <ele>197.69</ele>
        <time>2020-06-16T13:52:38Z</time>
      </trkpt>
      <trkpt lat="49.61609" lon="4.95909">
        <ele>198.17</ele>
        <time>2020-06-16T13:52:45Z</time>
      </trkpt>
      <trkpt lat="49.61613" lon="4.95912">
        <ele>198.17</ele>
        <time>2020-06-16T13:52:48Z</time>
      </trkpt>
      <trkpt lat="49.61626" lon="4.9592">
        <ele>198.17</ele>
        <time>2020-06-16T13:53:02Z</time>
      </trkpt>
      <trkpt lat="49.61633" lon="4.95925">
        <ele>197.69</ele>
        <time>2020-06-16T13:53:11Z</time>
      </trkpt>
      <trkpt lat="49.61636" lon="4.95927">
        <ele>197.69</ele>
        <time>2020-06-16T13:53:14Z</time>
      </trkpt>
      <trkpt lat="49.61652" lon="4.9594">
        <ele>198.17</ele>
        <time>2020-06-16T13:53:31Z</time>
      </trkpt>
      <trkpt lat="49.61666" lon="4.9595">
        <ele>196.25</ele>
        <time>2020-06-16T13:53:46Z</time>
      </trkpt>
      <trkpt lat="49.61673" lon="4.95953">
        <ele>195.77</ele>
        <time>2020-06-16T13:53:54Z</time>
      </trkpt>
      <trkpt lat="49.61685" lon="4.95964">
        <ele>197.69</ele>
        <time>2020-06-16T13:54:10Z</time>
      </trkpt>
      <trkpt lat="49.617" lon="4.95978">
        <ele>198.65</ele>
        <time>2020-06-16T13:54:24Z</time>
      </trkpt>
      <trkpt lat="49.61713" lon="4.9599">
        <ele>198.65</ele>
        <time>2020-06-16T13:54:39Z</time>
      </trkpt>
      <trkpt lat="49.61719" lon="4.95992">
        <ele>198.17</ele>
        <time>2020-06-16T13:54:45Z</time>
      </trkpt>
      <trkpt lat="49.61736" lon="4.96">
        <ele>198.65</ele>
        <time>2020-06-16T13:55:01Z</time>
      </trkpt>
      <trkpt lat="49.61752" lon="4.96005">
        <ele>196.25</ele>
        <time>2020-06-16T13:55:15Z</time>
      </trkpt>
      <trkpt lat="49.61754" lon="4.96006">
        <ele>195.77</ele>
        <time>2020-06-16T13:55:17Z</time>
      </trkpt>
      <trkpt lat="49.61771" lon="4.9601">
        <ele>193.36</ele>
        <time>2020-06-16T13:55:33Z</time>
      </trkpt>
      <trkpt lat="49.61786" lon="4.96015">
        <ele>190.96</ele>
        <time>2020-06-16T13:55:50Z</time>
      </trkpt>
      <trkpt lat="49.61797" lon="4.96017">
        <ele>190</ele>
        <time>2020-06-16T13:55:58Z</time>
      </trkpt>
      <trkpt lat="49.61811" lon="4.9602">
        <ele>186.15</ele>
        <time>2020-06-16T13:56:14Z</time>
      </trkpt>
      <trkpt lat="49.61824" lon="4.96021">
        <ele>184.71</ele>
        <time>2020-06-16T13:56:25Z</time>
      </trkpt>
      <trkpt lat="49.61839" lon="4.96027">
        <ele>182.79</ele>
        <time>2020-06-16T13:56:41Z</time>
      </trkpt>
      <trkpt lat="49.61847" lon="4.96029">
        <ele>180.87</ele>
        <time>2020-06-16T13:56:51Z</time>
      </trkpt>
      <trkpt lat="49.61852" lon="4.9603">
        <ele>180.38</ele>
        <time>2020-06-16T13:56:55Z</time>
      </trkpt>
      <trkpt lat="49.61857" lon="4.96031">
        <ele>180.38</ele>
        <time>2020-06-16T13:56:59Z</time>
      </trkpt>
      <trkpt lat="49.61875" lon="4.96033">
        <ele>180.87</ele>
        <time>2020-06-16T13:57:16Z</time>
      </trkpt>
      <trkpt lat="49.61892" lon="4.96037">
        <ele>181.83</ele>
        <time>2020-06-16T13:57:34Z</time>
      </trkpt>
      <trkpt lat="49.619" lon="4.9604">
        <ele>181.83</ele>
        <time>2020-06-16T13:57:42Z</time>
      </trkpt>
      <trkpt lat="49.61903" lon="4.96041">
        <ele>182.31</ele>
        <time>2020-06-16T13:57:44Z</time>
      </trkpt>
      <trkpt lat="49.61913" lon="4.96038">
        <ele>182.31</ele>
        <time>2020-06-16T13:57:53Z</time>
      </trkpt>
      <trkpt lat="49.61918" lon="4.96038">
        <ele>182.79</ele>
        <time>2020-06-16T13:57:57Z</time>
      </trkpt>
      <trkpt lat="49.61928" lon="4.96038">
        <ele>182.31</ele>
        <time>2020-06-16T13:58:10Z</time>
      </trkpt>
      <trkpt lat="49.61933" lon="4.96039">
        <ele>181.35</ele>
        <time>2020-06-16T13:58:17Z</time>
      </trkpt>
      <trkpt lat="49.61948" lon="4.96047">
        <ele>179.42</ele>
        <time>2020-06-16T13:58:33Z</time>
      </trkpt>
      <trkpt lat="49.61968" lon="4.96048">
        <ele>179.9</ele>
        <time>2020-06-16T13:58:51Z</time>
      </trkpt>
      <trkpt lat="49.61993" lon="4.96055">
        <ele>175.58</ele>
        <time>2020-06-16T13:59:15Z</time>
      </trkpt>
      <trkpt lat="49.62011" lon="4.96057">
        <ele>177.98</ele>
        <time>2020-06-16T13:59:34Z</time>
      </trkpt>
      <trkpt lat="49.62026" lon="4.96055">
        <ele>179.9</ele>
        <time>2020-06-16T13:59:47Z</time>
      </trkpt>
      <trkpt lat="49.62041" lon="4.96052">
        <ele>180.87</ele>
        <time>2020-06-16T14:00:00Z</time>
      </trkpt>
      <trkpt lat="49.62045" lon="4.96051">
        <ele>180.87</ele>
        <time>2020-06-16T14:00:05Z</time>
      </trkpt>
      <trkpt lat="49.6205" lon="4.96051">
        <ele>180.38</ele>
        <time>2020-06-16T14:00:09Z</time>
      </trkpt>
      <trkpt lat="49.62066" lon="4.96051">
        <ele>182.31</ele>
        <time>2020-06-16T14:00:25Z</time>
      </trkpt>
      <trkpt lat="49.62084" lon="4.96047">
        <ele>183.75</ele>
        <time>2020-06-16T14:00:40Z</time>
      </trkpt>
      <trkpt lat="49.62096" lon="4.96042">
        <ele>181.35</ele>
        <time>2020-06-16T14:00:54Z</time>
      </trkpt>
      <trkpt lat="49.62117" lon="4.96033">
        <ele>183.27</ele>
        <time>2020-06-16T14:01:12Z</time>
      </trkpt>
      <trkpt lat="49.62132" lon="4.96029">
        <ele>186.15</ele>
        <time>2020-06-16T14:01:27Z</time>
      </trkpt>
      <trkpt lat="49.62135" lon="4.96029">
        <ele>188.08</ele>
        <time>2020-06-16T14:01:30Z</time>
      </trkpt>
      <trkpt lat="49.62148" lon="4.96024">
        <ele>188.56</ele>
        <time>2020-06-16T14:01:46Z</time>
      </trkpt>
      <trkpt lat="49.62168" lon="4.96023">
        <ele>185.19</ele>
        <time>2020-06-16T14:02:04Z</time>
      </trkpt>
      <trkpt lat="49.6218" lon="4.96021">
        <ele>184.71</ele>
        <time>2020-06-16T14:02:19Z</time>
      </trkpt>
      <trkpt lat="49.62199" lon="4.96019">
        <ele>185.67</ele>
        <time>2020-06-16T14:02:32Z</time>
      </trkpt>
      <trkpt lat="49.62206" lon="4.96022">
        <ele>184.71</ele>
        <time>2020-06-16T14:02:39Z</time>
      </trkpt>
      <trkpt lat="49.62223" lon="4.96006">
        <ele>179.9</ele>
        <time>2020-06-16T14:02:55Z</time>
      </trkpt>
      <trkpt lat="49.62229" lon="4.96001">
        <ele>178.94</ele>
        <time>2020-06-16T14:03:04Z</time>
      </trkpt>
      <trkpt lat="49.62235" lon="4.96001">
        <ele>178.94</ele>
        <time>2020-06-16T14:03:09Z</time>
      </trkpt>
      <trkpt lat="49.62248" lon="4.96016">
        <ele>179.9</ele>
        <time>2020-06-16T14:03:26Z</time>
      </trkpt>
      <trkpt lat="49.6226" lon="4.9603">
        <ele>182.31</ele>
        <time>2020-06-16T14:03:41Z</time>
      </trkpt>
      <trkpt lat="49.62263" lon="4.96035">
        <ele>182.79</ele>
        <time>2020-06-16T14:03:45Z</time>
      </trkpt>
      <trkpt lat="49.62267" lon="4.9604">
        <ele>182.79</ele>
        <time>2020-06-16T14:03:49Z</time>
      </trkpt>
      <trkpt lat="49.62281" lon="4.9606">
        <ele>183.27</ele>
        <time>2020-06-16T14:04:07Z</time>
      </trkpt>
      <trkpt lat="49.62296" lon="4.9608">
        <ele>182.79</ele>
        <time>2020-06-16T14:04:26Z</time>
      </trkpt>
      <trkpt lat="49.62308" lon="4.96092">
        <ele>182.79</ele>
        <time>2020-06-16T14:04:40Z</time>
      </trkpt>
      <trkpt lat="49.6232" lon="4.96095">
        <ele>179.42</ele>
        <time>2020-06-16T14:04:49Z</time>
      </trkpt>
      <trkpt lat="49.62332" lon="4.96095">
        <ele>178.94</ele>
        <time>2020-06-16T14:05:02Z</time>
      </trkpt>
      <trkpt lat="49.62337" lon="4.96095">
        <ele>178.94</ele>
        <time>2020-06-16T14:05:06Z</time>
      </trkpt>
      <trkpt lat="49.62355" lon="4.96104">
        <ele>179.42</ele>
        <time>2020-06-16T14:05:22Z</time>
      </trkpt>
      <trkpt lat="49.62371" lon="4.96113">
        <ele>180.87</ele>
        <time>2020-06-16T14:05:39Z</time>
      </trkpt>
      <trkpt lat="49.62381" lon="4.96123">
        <ele>181.35</ele>
        <time>2020-06-16T14:05:54Z</time>
      </trkpt>
      <trkpt lat="49.62384" lon="4.96122">
        <ele>180.38</ele>
        <time>2020-06-16T14:06:06Z</time>
      </trkpt>
      <trkpt lat="49.62399" lon="4.96134">
        <ele>181.83</ele>
        <time>2020-06-16T14:06:20Z</time>
      </trkpt>
      <trkpt lat="49.6241" lon="4.96138">
        <ele>182.79</ele>
        <time>2020-06-16T14:06:32Z</time>
      </trkpt>
      <trkpt lat="49.62425" lon="4.96142">
        <ele>184.23</ele>
        <time>2020-06-16T14:06:50Z</time>
      </trkpt>
      <trkpt lat="49.62438" lon="4.96142">
        <ele>187.59</ele>
        <time>2020-06-16T14:07:06Z</time>
      </trkpt>
      <trkpt lat="49.62449" lon="4.96149">
        <ele>187.59</ele>
        <time>2020-06-16T14:07:15Z</time>
      </trkpt>
      <trkpt lat="49.62453" lon="4.96149">
        <ele>186.63</ele>
        <time>2020-06-16T14:07:17Z</time>
      </trkpt>
      <trkpt lat="49.62475" lon="4.96155">
        <ele>180.38</ele>
        <time>2020-06-16T14:07:34Z</time>
      </trkpt>
      <trkpt lat="49.6249" lon="4.96162">
        <ele>177.5</ele>
        <time>2020-06-16T14:07:48Z</time>
      </trkpt>
      <trkpt lat="49.62504" lon="4.96162">
        <ele>178.46</ele>
        <time>2020-06-16T14:08:00Z</time>
      </trkpt>
      <trkpt lat="49.62512" lon="4.96163">
        <ele>178.94</ele>
        <time>2020-06-16T14:08:07Z</time>
      </trkpt>
      <trkpt lat="49.62524" lon="4.96167">
        <ele>179.42</ele>
        <time>2020-06-16T14:08:20Z</time>
      </trkpt>
      <trkpt lat="49.6254" lon="4.96171">
        <ele>180.38</ele>
        <time>2020-06-16T14:08:35Z</time>
      </trkpt>
      <trkpt lat="49.62542" lon="4.96172">
        <ele>180.38</ele>
        <time>2020-06-16T14:08:37Z</time>
      </trkpt>
      <trkpt lat="49.62554" lon="4.96175">
        <ele>179.9</ele>
        <time>2020-06-16T14:08:49Z</time>
      </trkpt>
      <trkpt lat="49.62568" lon="4.96185">
        <ele>178.46</ele>
        <time>2020-06-16T14:09:04Z</time>
      </trkpt>
      <trkpt lat="49.62583" lon="4.96189">
        <ele>179.9</ele>
        <time>2020-06-16T14:09:19Z</time>
      </trkpt>
      <trkpt lat="49.62585" lon="4.9619">
        <ele>179.9</ele>
        <time>2020-06-16T14:09:21Z</time>
      </trkpt>
      <trkpt lat="49.62589" lon="4.9619">
        <ele>180.38</ele>
        <time>2020-06-16T14:09:24Z</time>
      </trkpt>
      <trkpt lat="49.62603" lon="4.96196">
        <ele>181.83</ele>
        <time>2020-06-16T14:09:39Z</time>
      </trkpt>
      <trkpt lat="49.62608" lon="4.96197">
        <ele>181.83</ele>
        <time>2020-06-16T14:09:43Z</time>
      </trkpt>
      <trkpt lat="49.62613" lon="4.96198">
        <ele>182.31</ele>
        <time>2020-06-16T14:09:50Z</time>
      </trkpt>
      <trkpt lat="49.62621" lon="4.96201">
        <ele>181.83</ele>
        <time>2020-06-16T14:09:57Z</time>
      </trkpt>
      <trkpt lat="49.62622" lon="4.96216">
        <ele>181.83</ele>
        <time>2020-06-16T14:10:13Z</time>
      </trkpt>
      <trkpt lat="49.62617" lon="4.96237">
        <ele>183.27</ele>
        <time>2020-06-16T14:10:30Z</time>
      </trkpt>
      <trkpt lat="49.62614" lon="4.96257">
        <ele>186.15</ele>
        <time>2020-06-16T14:10:43Z</time>
      </trkpt>
      <trkpt lat="49.6261" lon="4.96285">
        <ele>186.63</ele>
        <time>2020-06-16T14:11:01Z</time>
      </trkpt>
      <trkpt lat="49.62605" lon="4.96308">
        <ele>187.11</ele>
        <time>2020-06-16T14:11:16Z</time>
      </trkpt>
      <trkpt lat="49.62601" lon="4.96332">
        <ele>186.15</ele>
        <time>2020-06-16T14:11:32Z</time>
      </trkpt>
      <trkpt lat="49.62602" lon="4.96334">
        <ele>186.15</ele>
        <time>2020-06-16T14:11:36Z</time>
      </trkpt>
      <trkpt lat="49.62617" lon="4.96346">
        <ele>183.75</ele>
        <time>2020-06-16T14:11:50Z</time>
      </trkpt>
      <trkpt lat="49.62631" lon="4.96356">
        <ele>180.87</ele>
        <time>2020-06-16T14:12:05Z</time>
      </trkpt>
      <trkpt lat="49.62633" lon="4.96357">
        <ele>180.87</ele>
        <time>2020-06-16T14:12:07Z</time>
      </trkpt>
      <trkpt lat="49.62646" lon="4.9637">
        <ele>181.83</ele>
        <time>2020-06-16T14:12:22Z</time>
      </trkpt>
      <trkpt lat="49.6266" lon="4.9638">
        <ele>180.87</ele>
        <time>2020-06-16T14:12:37Z</time>
      </trkpt>
      <trkpt lat="49.62674" lon="4.96388">
        <ele>182.31</ele>
        <time>2020-06-16T14:12:52Z</time>
      </trkpt>
      <trkpt lat="49.62686" lon="4.96396">
        <ele>183.75</ele>
        <time>2020-06-16T14:13:06Z</time>
      </trkpt>
      <trkpt lat="49.62702" lon="4.96405">
        <ele>180.38</ele>
        <time>2020-06-16T14:13:22Z</time>
      </trkpt>
      <trkpt lat="49.6272" lon="4.96414">
        <ele>177.02</ele>
        <time>2020-06-16T14:13:38Z</time>
      </trkpt>
      <trkpt lat="49.62733" lon="4.9642">
        <ele>176.54</ele>
        <time>2020-06-16T14:13:53Z</time>
      </trkpt>
      <trkpt lat="49.62747" lon="4.96427">
        <ele>179.42</ele>
        <time>2020-06-16T14:14:09Z</time>
      </trkpt>
      <trkpt lat="49.62757" lon="4.96439">
        <ele>179.9</ele>
        <time>2020-06-16T14:14:21Z</time>
      </trkpt>
      <trkpt lat="49.62766" lon="4.96445">
        <ele>178.46</ele>
        <time>2020-06-16T14:14:33Z</time>
      </trkpt>
      <trkpt lat="49.62781" lon="4.9645">
        <ele>177.5</ele>
        <time>2020-06-16T14:14:48Z</time>
      </trkpt>
      <trkpt lat="49.62787" lon="4.96454">
        <ele>178.46</ele>
        <time>2020-06-16T14:14:56Z</time>
      </trkpt>
      <trkpt lat="49.62799" lon="4.9646">
        <ele>178.94</ele>
        <time>2020-06-16T14:15:10Z</time>
      </trkpt>
      <trkpt lat="49.62814" lon="4.96468">
        <ele>177.02</ele>
        <time>2020-06-16T14:15:25Z</time>
      </trkpt>
      <trkpt lat="49.62828" lon="4.96475">
        <ele>179.42</ele>
        <time>2020-06-16T14:15:41Z</time>
      </trkpt>
      <trkpt lat="49.62842" lon="4.96483">
        <ele>178.94</ele>
        <time>2020-06-16T14:15:55Z</time>
      </trkpt>
      <trkpt lat="49.62857" lon="4.96489">
        <ele>178.94</ele>
        <time>2020-06-16T14:16:09Z</time>
      </trkpt>
      <trkpt lat="49.62874" lon="4.96497">
        <ele>178.46</ele>
        <time>2020-06-16T14:16:25Z</time>
      </trkpt>
      <trkpt lat="49.6288" lon="4.96503">
        <ele>177.98</ele>
        <time>2020-06-16T14:16:33Z</time>
      </trkpt>
      <trkpt lat="49.62884" lon="4.96506">
        <ele>177.5</ele>
        <time>2020-06-16T14:16:37Z</time>
      </trkpt>
      <trkpt lat="49.629" lon="4.96517">
        <ele>178.46</ele>
        <time>2020-06-16T14:16:54Z</time>
      </trkpt>
      <trkpt lat="49.62905" lon="4.96519">
        <ele>177.98</ele>
        <time>2020-06-16T14:17:07Z</time>
      </trkpt>
      <trkpt lat="49.62914" lon="4.96525">
        <ele>179.42</ele>
        <time>2020-06-16T14:17:21Z</time>
      </trkpt>
      <trkpt lat="49.62927" lon="4.96536">
        <ele>180.38</ele>
        <time>2020-06-16T14:17:36Z</time>
      </trkpt>
      <trkpt lat="49.6294" lon="4.96547">
        <ele>178.46</ele>
        <time>2020-06-16T14:17:51Z</time>
      </trkpt>
      <trkpt lat="49.62943" lon="4.96546">
        <ele>177.5</ele>
        <time>2020-06-16T14:18:09Z</time>
      </trkpt>
      <trkpt lat="49.62944" lon="4.96544">
        <ele>177.98</ele>
        <time>2020-06-16T14:18:31Z</time>
      </trkpt>
      <trkpt lat="49.62943" lon="4.96542">
        <ele>175.58</ele>
        <time>2020-06-16T14:19:09Z</time>
      </trkpt>
      <trkpt lat="49.62943" lon="4.96541">
        <ele>175.1</ele>
        <time>2020-06-16T14:19:42Z</time>
      </trkpt>
      <trkpt lat="49.62943" lon="4.9654">
        <ele>175.58</ele>
        <time>2020-06-16T14:20:23Z</time>
      </trkpt>
      <trkpt lat="49.62943" lon="4.96537">
        <ele>176.06</ele>
        <time>2020-06-16T14:20:59Z</time>
      </trkpt>
      <trkpt lat="49.62942" lon="4.96538">
        <ele>177.02</ele>
        <time>2020-06-16T14:21:24Z</time>
      </trkpt>
      <trkpt lat="49.62943" lon="4.96537">
        <ele>178.46</ele>
        <time>2020-06-16T14:21:50Z</time>
      </trkpt>
      <trkpt lat="49.62942" lon="4.96538">
        <ele>179.42</ele>
        <time>2020-06-16T14:22:14Z</time>
      </trkpt>
      <trkpt lat="49.62943" lon="4.96537">
        <ele>178.94</ele>
        <time>2020-06-16T14:22:47Z</time>
      </trkpt>
      <trkpt lat="49.62942" lon="4.96537">
        <ele>178.94</ele>
        <time>2020-06-16T14:23:14Z</time>
      </trkpt>
      <trkpt lat="49.62942" lon="4.96535">
        <ele>179.42</ele>
        <time>2020-06-16T14:23:47Z</time>
      </trkpt>
      <trkpt lat="49.62943" lon="4.96533">
        <ele>180.87</ele>
        <time>2020-06-16T14:24:24Z</time>
      </trkpt>
      <trkpt lat="49.62942" lon="4.96534">
        <ele>180.38</ele>
        <time>2020-06-16T14:24:52Z</time>
      </trkpt>
      <trkpt lat="49.62941" lon="4.96533">
        <ele>180.87</ele>
        <time>2020-06-16T14:25:28Z</time>
      </trkpt>
      <trkpt lat="49.62942" lon="4.96532">
        <ele>182.31</ele>
        <time>2020-06-16T14:26:00Z</time>
      </trkpt>
      <trkpt lat="49.62942" lon="4.96531">
        <ele>183.27</ele>
        <time>2020-06-16T14:26:28Z</time>
      </trkpt>
      <trkpt lat="49.62942" lon="4.9653">
        <ele>183.27</ele>
        <time>2020-06-16T14:27:04Z</time>
      </trkpt>
      <trkpt lat="49.62943" lon="4.96528">
        <ele>183.75</ele>
        <time>2020-06-16T14:27:41Z</time>
      </trkpt>
      <trkpt lat="49.62942" lon="4.96528">
        <ele>182.79</ele>
        <time>2020-06-16T14:28:13Z</time>
      </trkpt>
      <trkpt lat="49.62943" lon="4.96529">
        <ele>181.35</ele>
        <time>2020-06-16T14:28:55Z</time>
      </trkpt>
      <trkpt lat="49.62942" lon="4.96531">
        <ele>181.83</ele>
        <time>2020-06-16T14:29:28Z</time>
      </trkpt>
      <trkpt lat="49.6294" lon="4.96533">
        <ele>183.27</ele>
        <time>2020-06-16T14:30:06Z</time>
      </trkpt>
      <trkpt lat="49.62939" lon="4.96533">
        <ele>183.27</ele>
        <time>2020-06-16T14:30:57Z</time>
      </trkpt>
      <trkpt lat="49.62939" lon="4.96532">
        <ele>183.27</ele>
        <time>2020-06-16T14:31:39Z</time>
      </trkpt>
      <trkpt lat="49.6294" lon="4.96533">
        <ele>183.75</ele>
        <time>2020-06-16T14:32:11Z</time>
      </trkpt>
      <trkpt lat="49.62941" lon="4.96535">
        <ele>182.79</ele>
        <time>2020-06-16T14:32:31Z</time>
      </trkpt>
      <trkpt lat="49.62951" lon="4.96546">
        <ele>179.9</ele>
        <time>2020-06-16T14:32:51Z</time>
      </trkpt>
      <trkpt lat="49.62968" lon="4.96563">
        <ele>173.17</ele>
        <time>2020-06-16T14:33:10Z</time>
      </trkpt>
      <trkpt lat="49.6298" lon="4.96571">
        <ele>170.29</ele>
        <time>2020-06-16T14:33:25Z</time>
      </trkpt>
      <trkpt lat="49.62997" lon="4.96581">
        <ele>170.29</ele>
        <time>2020-06-16T14:33:45Z</time>
      </trkpt>
      <trkpt lat="49.63015" lon="4.96597">
        <ele>169.33</ele>
        <time>2020-06-16T14:34:05Z</time>
      </trkpt>
      <trkpt lat="49.63029" lon="4.96609">
        <ele>171.25</ele>
        <time>2020-06-16T14:34:21Z</time>
      </trkpt>
      <trkpt lat="49.63047" lon="4.96621">
        <ele>168.37</ele>
        <time>2020-06-16T14:34:39Z</time>
      </trkpt>
      <trkpt lat="49.63065" lon="4.96637">
        <ele>165.48</ele>
        <time>2020-06-16T14:34:58Z</time>
      </trkpt>
      <trkpt lat="49.63078" lon="4.96652">
        <ele>163.56</ele>
        <time>2020-06-16T14:35:16Z</time>
      </trkpt>
      <trkpt lat="49.63095" lon="4.96669">
        <ele>162.12</ele>
        <time>2020-06-16T14:35:35Z</time>
      </trkpt>
      <trkpt lat="49.63108" lon="4.96686">
        <ele>162.6</ele>
        <time>2020-06-16T14:35:51Z</time>
      </trkpt>
      <trkpt lat="49.6312" lon="4.96697">
        <ele>165.96</ele>
        <time>2020-06-16T14:36:05Z</time>
      </trkpt>
      <trkpt lat="49.63133" lon="4.96709">
        <ele>170.29</ele>
        <time>2020-06-16T14:36:22Z</time>
      </trkpt>
      <trkpt lat="49.63138" lon="4.96713">
        <ele>171.73</ele>
        <time>2020-06-16T14:36:30Z</time>
      </trkpt>
      <trkpt lat="49.63152" lon="4.96725">
        <ele>174.14</ele>
        <time>2020-06-16T14:36:47Z</time>
      </trkpt>
      <trkpt lat="49.63168" lon="4.9674">
        <ele>177.02</ele>
        <time>2020-06-16T14:37:06Z</time>
      </trkpt>
      <trkpt lat="49.63184" lon="4.96754">
        <ele>174.62</ele>
        <time>2020-06-16T14:37:24Z</time>
      </trkpt>
      <trkpt lat="49.63199" lon="4.96767">
        <ele>173.17</ele>
        <time>2020-06-16T14:37:42Z</time>
      </trkpt>
      <trkpt lat="49.63214" lon="4.96782">
        <ele>170.29</ele>
        <time>2020-06-16T14:37:57Z</time>
      </trkpt>
      <trkpt lat="49.6322" lon="4.96795">
        <ele>174.14</ele>
        <time>2020-06-16T14:38:10Z</time>
      </trkpt>
      <trkpt lat="49.6323" lon="4.96811">
        <ele>176.06</ele>
        <time>2020-06-16T14:38:25Z</time>
      </trkpt>
      <trkpt lat="49.63235" lon="4.96818">
        <ele>176.06</ele>
        <time>2020-06-16T14:38:33Z</time>
      </trkpt>
      <trkpt lat="49.63245" lon="4.96838">
        <ele>175.58</ele>
        <time>2020-06-16T14:38:50Z</time>
      </trkpt>
      <trkpt lat="49.63254" lon="4.96858">
        <ele>177.02</ele>
        <time>2020-06-16T14:39:06Z</time>
      </trkpt>
      <trkpt lat="49.63262" lon="4.96876">
        <ele>177.02</ele>
        <time>2020-06-16T14:39:20Z</time>
      </trkpt>
      <trkpt lat="49.63267" lon="4.96885">
        <ele>177.98</ele>
        <time>2020-06-16T14:39:27Z</time>
      </trkpt>
      <trkpt lat="49.63273" lon="4.96904">
        <ele>178.94</ele>
        <time>2020-06-16T14:39:42Z</time>
      </trkpt>
      <trkpt lat="49.63276" lon="4.96924">
        <ele>182.31</ele>
        <time>2020-06-16T14:39:58Z</time>
      </trkpt>
      <trkpt lat="49.63281" lon="4.96943">
        <ele>183.75</ele>
        <time>2020-06-16T14:40:12Z</time>
      </trkpt>
      <trkpt lat="49.63284" lon="4.96967">
        <ele>187.59</ele>
        <time>2020-06-16T14:40:28Z</time>
      </trkpt>
      <trkpt lat="49.6329" lon="4.96997">
        <ele>188.08</ele>
        <time>2020-06-16T14:40:47Z</time>
      </trkpt>
      <trkpt lat="49.63294" lon="4.97013">
        <ele>186.63</ele>
        <time>2020-06-16T14:41:00Z</time>
      </trkpt>
      <trkpt lat="49.63302" lon="4.97037">
        <ele>182.79</ele>
        <time>2020-06-16T14:41:16Z</time>
      </trkpt>
      <trkpt lat="49.63303" lon="4.97039">
        <ele>182.79</ele>
        <time>2020-06-16T14:41:17Z</time>
      </trkpt>
      <trkpt lat="49.63304" lon="4.97045">
        <ele>182.31</ele>
        <time>2020-06-16T14:41:20Z</time>
      </trkpt>
      <trkpt lat="49.63307" lon="4.97054">
        <ele>182.31</ele>
        <time>2020-06-16T14:41:26Z</time>
      </trkpt>
      <trkpt lat="49.6331" lon="4.97072">
        <ele>184.23</ele>
        <time>2020-06-16T14:41:41Z</time>
      </trkpt>
      <trkpt lat="49.63313" lon="4.97085">
        <ele>184.23</ele>
        <time>2020-06-16T14:41:48Z</time>
      </trkpt>
      <trkpt lat="49.63323" lon="4.97116">
        <ele>176.06</ele>
        <time>2020-06-16T14:42:06Z</time>
      </trkpt>
      <trkpt lat="49.63323" lon="4.97125">
        <ele>174.62</ele>
        <time>2020-06-16T14:42:11Z</time>
      </trkpt>
      <trkpt lat="49.63329" lon="4.97147">
        <ele>171.25</ele>
        <time>2020-06-16T14:42:25Z</time>
      </trkpt>
      <trkpt lat="49.63334" lon="4.97169">
        <ele>172.21</ele>
        <time>2020-06-16T14:42:41Z</time>
      </trkpt>
      <trkpt lat="49.63336" lon="4.97178">
        <ele>172.69</ele>
        <time>2020-06-16T14:42:47Z</time>
      </trkpt>
      <trkpt lat="49.63337" lon="4.97192">
        <ele>174.62</ele>
        <time>2020-06-16T14:42:55Z</time>
      </trkpt>
      <trkpt lat="49.63344" lon="4.97211">
        <ele>172.69</ele>
        <time>2020-06-16T14:43:09Z</time>
      </trkpt>
      <trkpt lat="49.63353" lon="4.97232">
        <ele>171.25</ele>
        <time>2020-06-16T14:43:22Z</time>
      </trkpt>
      <trkpt lat="49.63361" lon="4.97248">
        <ele>169.33</ele>
        <time>2020-06-16T14:43:35Z</time>
      </trkpt>
      <trkpt lat="49.63371" lon="4.97265">
        <ele>167.41</ele>
        <time>2020-06-16T14:43:49Z</time>
      </trkpt>
      <trkpt lat="49.63384" lon="4.97289">
        <ele>165</ele>
        <time>2020-06-16T14:44:06Z</time>
      </trkpt>
      <trkpt lat="49.6339" lon="4.97305">
        <ele>164.04</ele>
        <time>2020-06-16T14:44:18Z</time>
      </trkpt>
      <trkpt lat="49.63399" lon="4.97326">
        <ele>165</ele>
        <time>2020-06-16T14:44:34Z</time>
      </trkpt>
      <trkpt lat="49.63408" lon="4.97344">
        <ele>165.48</ele>
        <time>2020-06-16T14:44:50Z</time>
      </trkpt>
      <trkpt lat="49.63412" lon="4.97352">
        <ele>165.48</ele>
        <time>2020-06-16T14:44:55Z</time>
      </trkpt>
      <trkpt lat="49.63415" lon="4.97353">
        <ele>164.04</ele>
        <time>2020-06-16T14:45:09Z</time>
      </trkpt>
      <trkpt lat="49.63417" lon="4.97348">
        <ele>163.56</ele>
        <time>2020-06-16T14:45:34Z</time>
      </trkpt>
      <trkpt lat="49.63417" lon="4.97347">
        <ele>163.56</ele>
        <time>2020-06-16T14:45:50Z</time>
      </trkpt>
      <trkpt lat="49.63426" lon="4.97365">
        <ele>164.52</ele>
        <time>2020-06-16T14:46:06Z</time>
      </trkpt>
      <trkpt lat="49.63436" lon="4.97384">
        <ele>164.04</ele>
        <time>2020-06-16T14:46:21Z</time>
      </trkpt>
      <trkpt lat="49.63445" lon="4.97405">
        <ele>163.08</ele>
        <time>2020-06-16T14:46:37Z</time>
      </trkpt>
      <trkpt lat="49.63446" lon="4.97406">
        <ele>162.6</ele>
        <time>2020-06-16T14:46:38Z</time>
      </trkpt>
      <trkpt lat="49.63446" lon="4.97409">
        <ele>162.6</ele>
        <time>2020-06-16T14:46:40Z</time>
      </trkpt>
      <trkpt lat="49.63448" lon="4.97412">
        <ele>162.6</ele>
        <time>2020-06-16T14:46:42Z</time>
      </trkpt>
      <trkpt lat="49.63453" lon="4.97419">
        <ele>162.12</ele>
        <time>2020-06-16T14:46:49Z</time>
      </trkpt>
      <trkpt lat="49.63463" lon="4.97437">
        <ele>160.2</ele>
        <time>2020-06-16T14:47:04Z</time>
      </trkpt>
      <trkpt lat="49.63476" lon="4.97451">
        <ele>158.27</ele>
        <time>2020-06-16T14:47:20Z</time>
      </trkpt>
      <trkpt lat="49.63485" lon="4.97466">
        <ele>157.31</ele>
        <time>2020-06-16T14:47:33Z</time>
      </trkpt>
      <trkpt lat="49.63494" lon="4.97483">
        <ele>156.35</ele>
        <time>2020-06-16T14:47:46Z</time>
      </trkpt>
      <trkpt lat="49.63505" lon="4.97502">
        <ele>157.31</ele>
        <time>2020-06-16T14:48:01Z</time>
      </trkpt>
      <trkpt lat="49.63514" lon="4.97517">
        <ele>157.31</ele>
        <time>2020-06-16T14:48:15Z</time>
      </trkpt>
      <trkpt lat="49.63521" lon="4.97526">
        <ele>157.31</ele>
        <time>2020-06-16T14:48:26Z</time>
      </trkpt>
      <trkpt lat="49.63529" lon="4.97544">
        <ele>157.31</ele>
        <time>2020-06-16T14:48:40Z</time>
      </trkpt>
      <trkpt lat="49.6354" lon="4.97562">
        <ele>157.31</ele>
        <time>2020-06-16T14:48:55Z</time>
      </trkpt>
      <trkpt lat="49.63551" lon="4.97579">
        <ele>158.75</ele>
        <time>2020-06-16T14:49:11Z</time>
      </trkpt>
      <trkpt lat="49.63562" lon="4.97596">
        <ele>160.2</ele>
        <time>2020-06-16T14:49:26Z</time>
      </trkpt>
      <trkpt lat="49.63573" lon="4.97613">
        <ele>159.72</ele>
        <time>2020-06-16T14:49:44Z</time>
      </trkpt>
      <trkpt lat="49.63586" lon="4.97632">
        <ele>157.79</ele>
        <time>2020-06-16T14:50:01Z</time>
      </trkpt>
      <trkpt lat="49.63594" lon="4.97641">
        <ele>159.72</ele>
        <time>2020-06-16T14:50:14Z</time>
      </trkpt>
      <trkpt lat="49.63601" lon="4.97653">
        <ele>160.68</ele>
        <time>2020-06-16T14:50:26Z</time>
      </trkpt>
      <trkpt lat="49.63595" lon="4.9767">
        <ele>160.2</ele>
        <time>2020-06-16T14:50:42Z</time>
      </trkpt>
      <trkpt lat="49.63585" lon="4.97681">
        <ele>160.68</ele>
        <time>2020-06-16T14:50:55Z</time>
      </trkpt>
      <trkpt lat="49.63575" lon="4.97698">
        <ele>160.68</ele>
        <time>2020-06-16T14:51:11Z</time>
      </trkpt>
      <trkpt lat="49.63565" lon="4.97709">
        <ele>163.56</ele>
        <time>2020-06-16T14:51:25Z</time>
      </trkpt>
      <trkpt lat="49.6356" lon="4.97717">
        <ele>165</ele>
        <time>2020-06-16T14:51:31Z</time>
      </trkpt>
      <trkpt lat="49.63556" lon="4.97724">
        <ele>166.45</ele>
        <time>2020-06-16T14:51:38Z</time>
      </trkpt>
      <trkpt lat="49.63548" lon="4.97733">
        <ele>167.41</ele>
        <time>2020-06-16T14:51:44Z</time>
      </trkpt>
      <trkpt lat="49.6354" lon="4.97753">
        <ele>169.33</ele>
        <time>2020-06-16T14:52:01Z</time>
      </trkpt>
      <trkpt lat="49.63533" lon="4.97769">
        <ele>169.81</ele>
        <time>2020-06-16T14:52:16Z</time>
      </trkpt>
      <trkpt lat="49.63524" lon="4.97782">
        <ele>169.33</ele>
        <time>2020-06-16T14:52:31Z</time>
      </trkpt>
      <trkpt lat="49.63516" lon="4.97792">
        <ele>169.81</ele>
        <time>2020-06-16T14:52:44Z</time>
      </trkpt>
      <trkpt lat="49.63505" lon="4.97806">
        <ele>171.25</ele>
        <time>2020-06-16T14:52:59Z</time>
      </trkpt>
      <trkpt lat="49.63493" lon="4.97819">
        <ele>172.69</ele>
        <time>2020-06-16T14:53:14Z</time>
      </trkpt>
      <trkpt lat="49.6348" lon="4.97836">
        <ele>172.21</ele>
        <time>2020-06-16T14:53:29Z</time>
      </trkpt>
      <trkpt lat="49.63473" lon="4.97849">
        <ele>173.66</ele>
        <time>2020-06-16T14:53:40Z</time>
      </trkpt>
      <trkpt lat="49.63464" lon="4.97864">
        <ele>176.54</ele>
        <time>2020-06-16T14:53:54Z</time>
      </trkpt>
      <trkpt lat="49.63459" lon="4.97873">
        <ele>178.46</ele>
        <time>2020-06-16T14:54:02Z</time>
      </trkpt>
      <trkpt lat="49.63447" lon="4.97886">
        <ele>181.83</ele>
        <time>2020-06-16T14:54:16Z</time>
      </trkpt>
      <trkpt lat="49.63434" lon="4.979">
        <ele>179.42</ele>
        <time>2020-06-16T14:54:31Z</time>
      </trkpt>
      <trkpt lat="49.63422" lon="4.97904">
        <ele>175.1</ele>
        <time>2020-06-16T14:54:44Z</time>
      </trkpt>
      <trkpt lat="49.63411" lon="4.97914">
        <ele>174.62</ele>
        <time>2020-06-16T14:54:58Z</time>
      </trkpt>
      <trkpt lat="49.63398" lon="4.97923">
        <ele>175.1</ele>
        <time>2020-06-16T14:55:13Z</time>
      </trkpt>
      <trkpt lat="49.63393" lon="4.97927">
        <ele>175.1</ele>
        <time>2020-06-16T14:55:19Z</time>
      </trkpt>
      <trkpt lat="49.63387" lon="4.97938">
        <ele>174.14</ele>
        <time>2020-06-16T14:55:28Z</time>
      </trkpt>
      <trkpt lat="49.63393" lon="4.97955">
        <ele>175.1</ele>
        <time>2020-06-16T14:55:41Z</time>
      </trkpt>
      <trkpt lat="49.634" lon="4.9797">
        <ele>176.54</ele>
        <time>2020-06-16T14:55:53Z</time>
      </trkpt>
      <trkpt lat="49.63402" lon="4.97975">
        <ele>177.02</ele>
        <time>2020-06-16T14:55:58Z</time>
      </trkpt>
      <trkpt lat="49.63404" lon="4.97978">
        <ele>177.02</ele>
        <time>2020-06-16T14:56:00Z</time>
      </trkpt>
      <trkpt lat="49.63406" lon="4.97985">
        <ele>177.5</ele>
        <time>2020-06-16T14:56:06Z</time>
      </trkpt>
      <trkpt lat="49.63415" lon="4.98003">
        <ele>178.46</ele>
        <time>2020-06-16T14:56:20Z</time>
      </trkpt>
      <trkpt lat="49.63417" lon="4.98007">
        <ele>178.94</ele>
        <time>2020-06-16T14:56:24Z</time>
      </trkpt>
      <trkpt lat="49.63425" lon="4.98023">
        <ele>180.87</ele>
        <time>2020-06-16T14:56:38Z</time>
      </trkpt>
      <trkpt lat="49.63433" lon="4.98034">
        <ele>180.87</ele>
        <time>2020-06-16T14:56:49Z</time>
      </trkpt>
      <trkpt lat="49.63443" lon="4.98045">
        <ele>178.94</ele>
        <time>2020-06-16T14:57:03Z</time>
      </trkpt>
      <trkpt lat="49.6345" lon="4.9805">
        <ele>178.94</ele>
        <time>2020-06-16T14:57:17Z</time>
      </trkpt>
      <trkpt lat="49.6345" lon="4.98052">
        <ele>178.94</ele>
        <time>2020-06-16T14:57:27Z</time>
      </trkpt>
      <trkpt lat="49.63443" lon="4.98021">
        <ele>180.87</ele>
        <time>2020-06-16T15:10:40Z</time>
      </trkpt>
      <trkpt lat="49.63459" lon="4.98026">
        <ele>181.83</ele>
        <time>2020-06-16T15:11:02Z</time>
      </trkpt>
      <trkpt lat="49.63465" lon="4.98042">
        <ele>174.62</ele>
        <time>2020-06-16T15:11:28Z</time>
      </trkpt>
      <trkpt lat="49.63465" lon="4.98043">
        <ele>173.66</ele>
        <time>2020-06-16T15:11:32Z</time>
      </trkpt>
    </trkseg>
  </trk>
</gpx>